<?xml version='1.0' encoding='UTF-8'?><gpx version="1.1" creator="JPX - https://github.com/jenetics/jpx" xmlns="http://www.topografix.com/GPX/1/1"><trk><trkseg><trkpt lat="45.1567617" lon="10.7891783"><ele>25.000000000000004</ele><time>2026-04-17T12:01:20.314Z</time></trkpt><trkpt lat="45.1568267" lon="10.78922"><ele>25.0</ele><time>2026-04-17T12:01:21.316Z</time></trkpt><trkpt lat="45.1568933" lon="10.789225"><ele>25.0</ele><time>2026-04-17T12:01:22.314Z</time></trkpt><trkpt lat="45.1569783" lon="10.789245"><ele>25.0</ele><time>2026-04-17T12:01:25.317Z</time></trkpt><trkpt lat="45.15706" lon="10.78925"><ele>25.0</ele><time>2026-04-17T12:01:28.319Z</time></trkpt><trkpt lat="45.1571267" lon="10.7892783"><ele>25.000000000000004</ele><time>2026-04-17T12:01:32.317Z</time></trkpt><trkpt lat="45.1571733" lon="10.789345"><ele>25.0</ele><time>2026-04-17T12:01:36.317Z</time></trkpt><trkpt lat="45.1571817" lon="10.7894817"><ele>25.500000000000004</ele><time>2026-04-17T12:01:40.318Z</time></trkpt><trkpt lat="45.15718" lon="10.7895733"><ele>26.0</ele><time>2026-04-17T12:01:42.315Z</time></trkpt><trkpt lat="45.15719" lon="10.7896833"><ele>26.5</ele><time>2026-04-17T12:01:45.317Z</time></trkpt><trkpt lat="45.157255" lon="10.78975"><ele>27.0</ele><time>2026-04-17T12:01:49.322Z</time></trkpt><trkpt lat="45.1573283" lon="10.7898033"><ele>27.500000000000004</ele><time>2026-04-17T12:01:52.321Z</time></trkpt><trkpt lat="45.157395" lon="10.7898417"><ele>28.0</ele><time>2026-04-17T12:01:54.322Z</time></trkpt><trkpt lat="45.15751" lon="10.7898533"><ele>28.0</ele><time>2026-04-17T12:01:56.323Z</time></trkpt><trkpt lat="45.15759" lon="10.7898233"><ele>27.999999999999996</ele><time>2026-04-17T12:01:58.319Z</time></trkpt><trkpt lat="45.1576617" lon="10.7897483"><ele>27.999999999999996</ele><time>2026-04-17T12:02:00.318Z</time></trkpt><trkpt lat="45.15767" lon="10.78962"><ele>28.0</ele><time>2026-04-17T12:02:02.317Z</time></trkpt><trkpt lat="45.15766" lon="10.7894533"><ele>28.0</ele><time>2026-04-17T12:02:04.319Z</time></trkpt><trkpt lat="45.15765" lon="10.7893533"><ele>27.833333333333336</ele><time>2026-04-17T12:02:05.327Z</time></trkpt><trkpt lat="45.1576467" lon="10.7892433"><ele>27.666666666666668</ele><time>2026-04-17T12:02:06.321Z</time></trkpt><trkpt lat="45.157645" lon="10.7891267"><ele>27.5</ele><time>2026-04-17T12:02:07.323Z</time></trkpt><trkpt lat="45.157645" lon="10.7890067"><ele>27.333333333333336</ele><time>2026-04-17T12:02:08.315Z</time></trkpt><trkpt lat="45.1576383" lon="10.78888"><ele>27.166666666666668</ele><time>2026-04-17T12:02:09.317Z</time></trkpt><trkpt lat="45.1576333" lon="10.7887483"><ele>27.0</ele><time>2026-04-17T12:02:10.319Z</time></trkpt><trkpt lat="45.1576267" lon="10.788615"><ele>26.6</ele><time>2026-04-17T12:02:11.319Z</time></trkpt><trkpt lat="45.1576183" lon="10.7884817"><ele>26.200000000000003</ele><time>2026-04-17T12:02:12.322Z</time></trkpt><trkpt lat="45.15761" lon="10.788345"><ele>25.8</ele><time>2026-04-17T12:02:13.317Z</time></trkpt><trkpt lat="45.1576017" lon="10.7882033"><ele>25.4</ele><time>2026-04-17T12:02:14.316Z</time></trkpt><trkpt lat="45.1575883" lon="10.788065"><ele>25.0</ele><time>2026-04-17T12:02:15.318Z</time></trkpt><trkpt lat="45.1575767" lon="10.7879383"><ele>25.000000000000004</ele><time>2026-04-17T12:02:16.316Z</time></trkpt><trkpt lat="45.1575667" lon="10.7878233"><ele>25.0</ele><time>2026-04-17T12:02:17.317Z</time></trkpt><trkpt lat="45.1575567" lon="10.7877233"><ele>25.0</ele><time>2026-04-17T12:02:18.323Z</time></trkpt><trkpt lat="45.1575617" lon="10.787565"><ele>25.0</ele><time>2026-04-17T12:02:20.32Z</time></trkpt><trkpt lat="45.1575617" lon="10.787435"><ele>25.000000000000004</ele><time>2026-04-17T12:02:22.312Z</time></trkpt><trkpt lat="45.1575617" lon="10.7873233"><ele>25.0</ele><time>2026-04-17T12:02:24.32Z</time></trkpt><trkpt lat="45.1575567" lon="10.7872033"><ele>24.833333333333336</ele><time>2026-04-17T12:02:26.319Z</time></trkpt><trkpt lat="45.1575533" lon="10.78707"><ele>24.666666666666668</ele><time>2026-04-17T12:02:28.321Z</time></trkpt><trkpt lat="45.15755" lon="10.78694"><ele>24.5</ele><time>2026-04-17T12:02:30.321Z</time></trkpt><trkpt lat="45.1575433" lon="10.78685"><ele>24.333333333333336</ele><time>2026-04-17T12:02:32.314Z</time></trkpt><trkpt lat="45.1575533" lon="10.7867383"><ele>24.166666666666668</ele><time>2026-04-17T12:02:35.316Z</time></trkpt><trkpt lat="45.1575383" lon="10.78663"><ele>24.0</ele><time>2026-04-17T12:02:38.321Z</time></trkpt><trkpt lat="45.1575367" lon="10.7865133"><ele>24.0</ele><time>2026-04-17T12:02:40.319Z</time></trkpt><trkpt lat="45.1575333" lon="10.7863933"><ele>24.0</ele><time>2026-04-17T12:02:42.319Z</time></trkpt><trkpt lat="45.1575283" lon="10.786265"><ele>24.0</ele><time>2026-04-17T12:02:44.321Z</time></trkpt><trkpt lat="45.1574917" lon="10.7860917"><ele>24.0</ele><time>2026-04-17T12:02:46.318Z</time></trkpt><trkpt lat="45.1574883" lon="10.785995"><ele>24.0</ele><time>2026-04-17T12:02:47.32Z</time></trkpt><trkpt lat="45.1574917" lon="10.7858967"><ele>24.0</ele><time>2026-04-17T12:02:48.317Z</time></trkpt><trkpt lat="45.1574883" lon="10.78578"><ele>24.2</ele><time>2026-04-17T12:02:49.318Z</time></trkpt><trkpt lat="45.1574833" lon="10.7856467"><ele>24.4</ele><time>2026-04-17T12:02:50.318Z</time></trkpt><trkpt lat="45.15748" lon="10.7855167"><ele>24.6</ele><time>2026-04-17T12:02:51.317Z</time></trkpt><trkpt lat="45.1574767" lon="10.7853867"><ele>24.8</ele><time>2026-04-17T12:02:52.325Z</time></trkpt><trkpt lat="45.1574683" lon="10.7852517"><ele>25.0</ele><time>2026-04-17T12:02:53.318Z</time></trkpt><trkpt lat="45.157465" lon="10.7851167"><ele>25.0</ele><time>2026-04-17T12:02:54.317Z</time></trkpt><trkpt lat="45.1574617" lon="10.7849817"><ele>25.0</ele><time>2026-04-17T12:02:55.318Z</time></trkpt><trkpt lat="45.1574583" lon="10.7848433"><ele>25.0</ele><time>2026-04-17T12:02:56.318Z</time></trkpt><trkpt lat="45.157455" lon="10.784705"><ele>25.0</ele><time>2026-04-17T12:02:57.317Z</time></trkpt><trkpt lat="45.1574433" lon="10.7845667"><ele>25.0</ele><time>2026-04-17T12:02:58.318Z</time></trkpt><trkpt lat="45.1574367" lon="10.7844233"><ele>25.0</ele><time>2026-04-17T12:02:59.323Z</time></trkpt><trkpt lat="45.15743" lon="10.78428"><ele>25.0</ele><time>2026-04-17T12:03:00.313Z</time></trkpt><trkpt lat="45.157425" lon="10.7841333"><ele>25.0</ele><time>2026-04-17T12:03:01.313Z</time></trkpt><trkpt lat="45.1574233" lon="10.7839817"><ele>25.0</ele><time>2026-04-17T12:03:02.319Z</time></trkpt><trkpt lat="45.1574183" lon="10.7838317"><ele>25.0</ele><time>2026-04-17T12:03:03.315Z</time></trkpt><trkpt lat="45.1574133" lon="10.7836833"><ele>25.0</ele><time>2026-04-17T12:03:04.312Z</time></trkpt><trkpt lat="45.157405" lon="10.7835367"><ele>25.0</ele><time>2026-04-17T12:03:05.313Z</time></trkpt><trkpt lat="45.1574" lon="10.7833917"><ele>25.0</ele><time>2026-04-17T12:03:06.312Z</time></trkpt><trkpt lat="45.1573983" lon="10.7832517"><ele>25.0</ele><time>2026-04-17T12:03:07.313Z</time></trkpt><trkpt lat="45.1574033" lon="10.7831117"><ele>25.0</ele><time>2026-04-17T12:03:08.313Z</time></trkpt><trkpt lat="45.1574083" lon="10.782975"><ele>24.833333333333336</ele><time>2026-04-17T12:03:09.318Z</time></trkpt><trkpt lat="45.1574033" lon="10.782845"><ele>24.666666666666668</ele><time>2026-04-17T12:03:10.318Z</time></trkpt><trkpt lat="45.1573983" lon="10.7827217"><ele>24.5</ele><time>2026-04-17T12:03:11.315Z</time></trkpt><trkpt lat="45.15739" lon="10.7826017"><ele>24.333333333333336</ele><time>2026-04-17T12:03:12.319Z</time></trkpt><trkpt lat="45.15738" lon="10.7824817"><ele>24.166666666666668</ele><time>2026-04-17T12:03:13.317Z</time></trkpt><trkpt lat="45.1573717" lon="10.78236"><ele>24.0</ele><time>2026-04-17T12:03:14.319Z</time></trkpt><trkpt lat="45.157365" lon="10.7822383"><ele>24.0</ele><time>2026-04-17T12:03:15.321Z</time></trkpt><trkpt lat="45.1573633" lon="10.782115"><ele>24.0</ele><time>2026-04-17T12:03:16.326Z</time></trkpt><trkpt lat="45.1573617" lon="10.7819917"><ele>24.0</ele><time>2026-04-17T12:03:17.322Z</time></trkpt><trkpt lat="45.15736" lon="10.7818717"><ele>24.0</ele><time>2026-04-17T12:03:18.322Z</time></trkpt><trkpt lat="45.1573633" lon="10.781755"><ele>24.0</ele><time>2026-04-17T12:03:19.319Z</time></trkpt><trkpt lat="45.15737" lon="10.78165"><ele>24.0</ele><time>2026-04-17T12:03:20.316Z</time></trkpt><trkpt lat="45.1573817" lon="10.7815117"><ele>23.833333333333332</ele><time>2026-04-17T12:03:22.313Z</time></trkpt><trkpt lat="45.1574033" lon="10.7814233"><ele>23.666666666666668</ele><time>2026-04-17T12:03:24.317Z</time></trkpt><trkpt lat="45.157425" lon="10.7813167"><ele>23.5</ele><time>2026-04-17T12:03:26.321Z</time></trkpt><trkpt lat="45.1574683" lon="10.7811367"><ele>23.333333333333336</ele><time>2026-04-17T12:03:28.315Z</time></trkpt><trkpt lat="45.1574767" lon="10.781025"><ele>23.166666666666668</ele><time>2026-04-17T12:03:29.318Z</time></trkpt><trkpt lat="45.1574617" lon="10.7809033"><ele>23.0</ele><time>2026-04-17T12:03:30.316Z</time></trkpt><trkpt lat="45.1574267" lon="10.7807717"><ele>23.0</ele><time>2026-04-17T12:03:31.318Z</time></trkpt><trkpt lat="45.1573733" lon="10.78063"><ele>23.0</ele><time>2026-04-17T12:03:32.319Z</time></trkpt><trkpt lat="45.1573183" lon="10.7804867"><ele>23.0</ele><time>2026-04-17T12:03:33.315Z</time></trkpt><trkpt lat="45.15726" lon="10.7803367"><ele>23.0</ele><time>2026-04-17T12:03:34.316Z</time></trkpt><trkpt lat="45.1572017" lon="10.780185"><ele>23.25</ele><time>2026-04-17T12:03:35.316Z</time></trkpt><trkpt lat="45.15714" lon="10.7800333"><ele>23.5</ele><time>2026-04-17T12:03:36.318Z</time></trkpt><trkpt lat="45.1570733" lon="10.7798783"><ele>23.75</ele><time>2026-04-17T12:03:37.319Z</time></trkpt><trkpt lat="45.1570083" lon="10.7797283"><ele>24.0</ele><time>2026-04-17T12:03:38.319Z</time></trkpt><trkpt lat="45.1569417" lon="10.7795933"><ele>24.0</ele><time>2026-04-17T12:03:39.317Z</time></trkpt><trkpt lat="45.156875" lon="10.7794733"><ele>24.0</ele><time>2026-04-17T12:03:40.317Z</time></trkpt><trkpt lat="45.1568083" lon="10.7793667"><ele>24.0</ele><time>2026-04-17T12:03:41.318Z</time></trkpt><trkpt lat="45.1567517" lon="10.779265"><ele>24.0</ele><time>2026-04-17T12:03:42.319Z</time></trkpt><trkpt lat="45.156715" lon="10.7791617"><ele>24.0</ele><time>2026-04-17T12:03:43.317Z</time></trkpt><trkpt lat="45.1566817" lon="10.7790667"><ele>24.0</ele><time>2026-04-17T12:03:44.32Z</time></trkpt><trkpt lat="45.156645" lon="10.7789667"><ele>24.0</ele><time>2026-04-17T12:03:45.316Z</time></trkpt><trkpt lat="45.1566" lon="10.778875"><ele>24.0</ele><time>2026-04-17T12:03:46.316Z</time></trkpt><trkpt lat="45.156555" lon="10.778785"><ele>24.0</ele><time>2026-04-17T12:03:47.317Z</time></trkpt><trkpt lat="45.1565083" lon="10.7786917"><ele>24.0</ele><time>2026-04-17T12:03:48.319Z</time></trkpt><trkpt lat="45.1564617" lon="10.7785967"><ele>24.0</ele><time>2026-04-17T12:03:49.317Z</time></trkpt><trkpt lat="45.156415" lon="10.7784883"><ele>24.0</ele><time>2026-04-17T12:03:50.317Z</time></trkpt><trkpt lat="45.1563683" lon="10.7783767"><ele>24.0</ele><time>2026-04-17T12:03:51.316Z</time></trkpt><trkpt lat="45.156325" lon="10.7782567"><ele>24.0</ele><time>2026-04-17T12:03:52.316Z</time></trkpt><trkpt lat="45.1562767" lon="10.77813"><ele>24.0</ele><time>2026-04-17T12:03:53.312Z</time></trkpt><trkpt lat="45.1562283" lon="10.7779983"><ele>24.0</ele><time>2026-04-17T12:03:54.312Z</time></trkpt><trkpt lat="45.1561767" lon="10.7778567"><ele>24.0</ele><time>2026-04-17T12:03:55.317Z</time></trkpt><trkpt lat="45.156115" lon="10.7777133"><ele>24.0</ele><time>2026-04-17T12:03:56.316Z</time></trkpt><trkpt lat="45.1560467" lon="10.77757"><ele>24.0</ele><time>2026-04-17T12:03:57.317Z</time></trkpt><trkpt lat="45.1559733" lon="10.7774183"><ele>24.0</ele><time>2026-04-17T12:03:58.318Z</time></trkpt><trkpt lat="45.1558983" lon="10.777265"><ele>23.75</ele><time>2026-04-17T12:03:59.319Z</time></trkpt><trkpt lat="45.15582" lon="10.7771167"><ele>23.5</ele><time>2026-04-17T12:04:00.319Z</time></trkpt><trkpt lat="45.1557383" lon="10.7769667"><ele>23.25</ele><time>2026-04-17T12:04:01.315Z</time></trkpt><trkpt lat="45.1556533" lon="10.7768133"><ele>23.0</ele><time>2026-04-17T12:04:02.314Z</time></trkpt><trkpt lat="45.1555667" lon="10.7766533"><ele>23.25</ele><time>2026-04-17T12:04:03.313Z</time></trkpt><trkpt lat="45.1554817" lon="10.7764883"><ele>23.5</ele><time>2026-04-17T12:04:04.313Z</time></trkpt><trkpt lat="45.1553967" lon="10.7763233"><ele>23.75</ele><time>2026-04-17T12:04:05.315Z</time></trkpt><trkpt lat="45.1553067" lon="10.776155"><ele>24.0</ele><time>2026-04-17T12:04:06.313Z</time></trkpt><trkpt lat="45.1552133" lon="10.775985"><ele>24.0</ele><time>2026-04-17T12:04:07.316Z</time></trkpt><trkpt lat="45.155125" lon="10.77582"><ele>24.0</ele><time>2026-04-17T12:04:08.318Z</time></trkpt><trkpt lat="45.1550333" lon="10.77565"><ele>24.0</ele><time>2026-04-17T12:04:09.314Z</time></trkpt><trkpt lat="45.154945" lon="10.7754817"><ele>24.0</ele><time>2026-04-17T12:04:10.313Z</time></trkpt><trkpt lat="45.1548533" lon="10.7753133"><ele>24.0</ele><time>2026-04-17T12:04:11.313Z</time></trkpt><trkpt lat="45.1547617" lon="10.7751433"><ele>24.0</ele><time>2026-04-17T12:04:12.316Z</time></trkpt><trkpt lat="45.15467" lon="10.7749783"><ele>24.0</ele><time>2026-04-17T12:04:13.319Z</time></trkpt><trkpt lat="45.15458" lon="10.7748117"><ele>24.0</ele><time>2026-04-17T12:04:14.315Z</time></trkpt><trkpt lat="45.15449" lon="10.7746533"><ele>24.0</ele><time>2026-04-17T12:04:15.317Z</time></trkpt><trkpt lat="45.154405" lon="10.7745017"><ele>24.0</ele><time>2026-04-17T12:04:16.313Z</time></trkpt><trkpt lat="45.154325" lon="10.7743583"><ele>24.0</ele><time>2026-04-17T12:04:17.319Z</time></trkpt><trkpt lat="45.1542517" lon="10.7742133"><ele>24.0</ele><time>2026-04-17T12:04:18.314Z</time></trkpt><trkpt lat="45.154195" lon="10.7740617"><ele>24.0</ele><time>2026-04-17T12:04:19.321Z</time></trkpt><trkpt lat="45.1541517" lon="10.7739017"><ele>24.0</ele><time>2026-04-17T12:04:20.319Z</time></trkpt><trkpt lat="45.1541283" lon="10.7737367"><ele>24.0</ele><time>2026-04-17T12:04:21.319Z</time></trkpt><trkpt lat="45.1541167" lon="10.77357"><ele>24.0</ele><time>2026-04-17T12:04:22.317Z</time></trkpt><trkpt lat="45.154115" lon="10.7734017"><ele>24.0</ele><time>2026-04-17T12:04:23.314Z</time></trkpt><trkpt lat="45.154125" lon="10.7732217"><ele>24.0</ele><time>2026-04-17T12:04:24.318Z</time></trkpt><trkpt lat="45.1541433" lon="10.77305"><ele>24.0</ele><time>2026-04-17T12:04:25.316Z</time></trkpt><trkpt lat="45.1541683" lon="10.7728867"><ele>24.0</ele><time>2026-04-17T12:04:26.317Z</time></trkpt><trkpt lat="45.1541983" lon="10.77274"><ele>24.0</ele><time>2026-04-17T12:04:27.316Z</time></trkpt><trkpt lat="45.1542367" lon="10.7726183"><ele>24.0</ele><time>2026-04-17T12:04:28.317Z</time></trkpt><trkpt lat="45.154265" lon="10.7725083"><ele>24.0</ele><time>2026-04-17T12:04:29.317Z</time></trkpt><trkpt lat="45.1542783" lon="10.7724"><ele>24.0</ele><time>2026-04-17T12:04:30.317Z</time></trkpt><trkpt lat="45.154265" lon="10.7722933"><ele>24.0</ele><time>2026-04-17T12:04:31.318Z</time></trkpt><trkpt lat="45.1542317" lon="10.772185"><ele>24.0</ele><time>2026-04-17T12:04:32.319Z</time></trkpt><trkpt lat="45.154185" lon="10.772065"><ele>24.0</ele><time>2026-04-17T12:04:33.318Z</time></trkpt><trkpt lat="45.1541333" lon="10.7719233"><ele>24.0</ele><time>2026-04-17T12:04:34.315Z</time></trkpt><trkpt lat="45.1540783" lon="10.771775"><ele>24.0</ele><time>2026-04-17T12:04:35.318Z</time></trkpt><trkpt lat="45.1540233" lon="10.7716183"><ele>24.0</ele><time>2026-04-17T12:04:36.318Z</time></trkpt><trkpt lat="45.1539667" lon="10.77145"><ele>24.0</ele><time>2026-04-17T12:04:37.315Z</time></trkpt><trkpt lat="45.1539067" lon="10.7712717"><ele>24.0</ele><time>2026-04-17T12:04:38.319Z</time></trkpt><trkpt lat="45.1538417" lon="10.7710833"><ele>24.0</ele><time>2026-04-17T12:04:39.317Z</time></trkpt><trkpt lat="45.153775" lon="10.770885"><ele>24.0</ele><time>2026-04-17T12:04:40.318Z</time></trkpt><trkpt lat="45.153705" lon="10.7706733"><ele>24.666666666666664</ele><time>2026-04-17T12:04:41.32Z</time></trkpt><trkpt lat="45.1536333" lon="10.7704567"><ele>25.333333333333332</ele><time>2026-04-17T12:04:42.318Z</time></trkpt><trkpt lat="45.1535567" lon="10.77023"><ele>26.0</ele><time>2026-04-17T12:04:43.317Z</time></trkpt><trkpt lat="45.1534783" lon="10.7699967"><ele>26.0</ele><time>2026-04-17T12:04:44.318Z</time></trkpt><trkpt lat="45.1534017" lon="10.7697633"><ele>26.0</ele><time>2026-04-17T12:04:45.317Z</time></trkpt><trkpt lat="45.153325" lon="10.7695317"><ele>26.0</ele><time>2026-04-17T12:04:46.317Z</time></trkpt><trkpt lat="45.15325" lon="10.7692983"><ele>26.666666666666664</ele><time>2026-04-17T12:04:47.317Z</time></trkpt><trkpt lat="45.1531733" lon="10.769065"><ele>27.333333333333336</ele><time>2026-04-17T12:04:48.32Z</time></trkpt><trkpt lat="45.15309" lon="10.7688367"><ele>28.0</ele><time>2026-04-17T12:04:49.317Z</time></trkpt><trkpt lat="45.1530017" lon="10.768615"><ele>27.666666666666668</ele><time>2026-04-17T12:04:50.319Z</time></trkpt><trkpt lat="45.1529083" lon="10.7683933"><ele>27.333333333333336</ele><time>2026-04-17T12:04:51.317Z</time></trkpt><trkpt lat="45.15281" lon="10.7681683"><ele>27.0</ele><time>2026-04-17T12:04:52.316Z</time></trkpt><trkpt lat="45.152715" lon="10.767945"><ele>27.0</ele><time>2026-04-17T12:04:53.319Z</time></trkpt><trkpt lat="45.1526183" lon="10.7677167"><ele>27.0</ele><time>2026-04-17T12:04:54.315Z</time></trkpt><trkpt lat="45.1525233" lon="10.76749"><ele>27.0</ele><time>2026-04-17T12:04:55.316Z</time></trkpt><trkpt lat="45.15243" lon="10.767265"><ele>27.0</ele><time>2026-04-17T12:04:56.318Z</time></trkpt><trkpt lat="45.152335" lon="10.7670417"><ele>27.0</ele><time>2026-04-17T12:04:57.32Z</time></trkpt><trkpt lat="45.1522433" lon="10.7668167"><ele>27.0</ele><time>2026-04-17T12:04:58.317Z</time></trkpt><trkpt lat="45.15215" lon="10.7665917"><ele>27.0</ele><time>2026-04-17T12:04:59.319Z</time></trkpt><trkpt lat="45.1520533" lon="10.7663667"><ele>27.0</ele><time>2026-04-17T12:05:00.319Z</time></trkpt><trkpt lat="45.1519567" lon="10.76614"><ele>27.0</ele><time>2026-04-17T12:05:01.316Z</time></trkpt><trkpt lat="45.1518617" lon="10.765915"><ele>27.0</ele><time>2026-04-17T12:05:02.317Z</time></trkpt><trkpt lat="45.1517667" lon="10.765685"><ele>27.0</ele><time>2026-04-17T12:05:03.317Z</time></trkpt><trkpt lat="45.15167" lon="10.7654567"><ele>27.0</ele><time>2026-04-17T12:05:04.318Z</time></trkpt><trkpt lat="45.1515767" lon="10.7652267"><ele>26.0</ele><time>2026-04-17T12:05:05.316Z</time></trkpt><trkpt lat="45.15149" lon="10.764995"><ele>25.0</ele><time>2026-04-17T12:05:06.318Z</time></trkpt><trkpt lat="45.15141" lon="10.7647667"><ele>24.0</ele><time>2026-04-17T12:05:07.317Z</time></trkpt><trkpt lat="45.1513383" lon="10.7645433"><ele>24.0</ele><time>2026-04-17T12:05:08.318Z</time></trkpt><trkpt lat="45.1512717" lon="10.7643333"><ele>24.0</ele><time>2026-04-17T12:05:09.311Z</time></trkpt><trkpt lat="45.1512167" lon="10.7641367"><ele>24.0</ele><time>2026-04-17T12:05:10.311Z</time></trkpt><trkpt lat="45.1511733" lon="10.7639533"><ele>24.0</ele><time>2026-04-17T12:05:11.312Z</time></trkpt><trkpt lat="45.1511483" lon="10.7637783"><ele>24.0</ele><time>2026-04-17T12:05:12.314Z</time></trkpt><trkpt lat="45.1511483" lon="10.7636133"><ele>24.0</ele><time>2026-04-17T12:05:13.311Z</time></trkpt><trkpt lat="45.1511683" lon="10.76345"><ele>24.0</ele><time>2026-04-17T12:05:14.314Z</time></trkpt><trkpt lat="45.15118" lon="10.763295"><ele>24.0</ele><time>2026-04-17T12:05:15.314Z</time></trkpt><trkpt lat="45.151175" lon="10.7631417"><ele>23.4</ele><time>2026-04-17T12:05:16.313Z</time></trkpt><trkpt lat="45.151135" lon="10.7630083"><ele>22.799999999999997</ele><time>2026-04-17T12:05:17.315Z</time></trkpt><trkpt lat="45.1510583" lon="10.7629083"><ele>22.200000000000003</ele><time>2026-04-17T12:05:18.312Z</time></trkpt><trkpt lat="45.1509517" lon="10.7628383"><ele>21.6</ele><time>2026-04-17T12:05:19.313Z</time></trkpt><trkpt lat="45.1508383" lon="10.762775"><ele>21.0</ele><time>2026-04-17T12:05:20.314Z</time></trkpt><trkpt lat="45.15073" lon="10.7626967"><ele>21.75</ele><time>2026-04-17T12:05:21.313Z</time></trkpt><trkpt lat="45.1506217" lon="10.7625833"><ele>22.5</ele><time>2026-04-17T12:05:22.315Z</time></trkpt><trkpt lat="45.150525" lon="10.762445"><ele>23.25</ele><time>2026-04-17T12:05:23.314Z</time></trkpt><trkpt lat="45.1504317" lon="10.7622867"><ele>24.0</ele><time>2026-04-17T12:05:24.313Z</time></trkpt><trkpt lat="45.1503417" lon="10.7621133"><ele>24.0</ele><time>2026-04-17T12:05:25.315Z</time></trkpt><trkpt lat="45.150255" lon="10.7619283"><ele>24.0</ele><time>2026-04-17T12:05:26.315Z</time></trkpt><trkpt lat="45.15017" lon="10.76173"><ele>24.0</ele><time>2026-04-17T12:05:27.314Z</time></trkpt><trkpt lat="45.1500867" lon="10.761525"><ele>24.0</ele><time>2026-04-17T12:05:28.31Z</time></trkpt><trkpt lat="45.1499983" lon="10.76132"><ele>24.0</ele><time>2026-04-17T12:05:29.313Z</time></trkpt><trkpt lat="45.1499083" lon="10.7611083"><ele>24.0</ele><time>2026-04-17T12:05:30.313Z</time></trkpt><trkpt lat="45.1498183" lon="10.760895"><ele>25.0</ele><time>2026-04-17T12:05:31.313Z</time></trkpt><trkpt lat="45.1497283" lon="10.7606833"><ele>26.0</ele><time>2026-04-17T12:05:32.317Z</time></trkpt><trkpt lat="45.1496417" lon="10.7604683"><ele>27.0</ele><time>2026-04-17T12:05:33.315Z</time></trkpt><trkpt lat="45.14956" lon="10.76026"><ele>27.0</ele><time>2026-04-17T12:05:34.318Z</time></trkpt><trkpt lat="45.149485" lon="10.7600667"><ele>27.0</ele><time>2026-04-17T12:05:35.318Z</time></trkpt><trkpt lat="45.14942" lon="10.7598983"><ele>27.0</ele><time>2026-04-17T12:05:36.317Z</time></trkpt><trkpt lat="45.1493667" lon="10.7597517"><ele>27.0</ele><time>2026-04-17T12:05:37.316Z</time></trkpt><trkpt lat="45.149315" lon="10.7596167"><ele>27.0</ele><time>2026-04-17T12:05:38.317Z</time></trkpt><trkpt lat="45.1492583" lon="10.759485"><ele>27.0</ele><time>2026-04-17T12:05:39.318Z</time></trkpt><trkpt lat="45.1491967" lon="10.759345"><ele>27.0</ele><time>2026-04-17T12:05:40.318Z</time></trkpt><trkpt lat="45.14913" lon="10.7591967"><ele>27.0</ele><time>2026-04-17T12:05:41.317Z</time></trkpt><trkpt lat="45.1490617" lon="10.75904"><ele>27.0</ele><time>2026-04-17T12:05:42.317Z</time></trkpt><trkpt lat="45.1489917" lon="10.7588733"><ele>27.0</ele><time>2026-04-17T12:05:43.318Z</time></trkpt><trkpt lat="45.1489167" lon="10.7587"><ele>27.0</ele><time>2026-04-17T12:05:44.32Z</time></trkpt><trkpt lat="45.14884" lon="10.7585167"><ele>27.0</ele><time>2026-04-17T12:05:45.319Z</time></trkpt><trkpt lat="45.1487617" lon="10.7583233"><ele>27.0</ele><time>2026-04-17T12:05:46.319Z</time></trkpt><trkpt lat="45.1486833" lon="10.7581233"><ele>27.0</ele><time>2026-04-17T12:05:47.32Z</time></trkpt><trkpt lat="45.1486017" lon="10.7579117"><ele>27.0</ele><time>2026-04-17T12:05:48.317Z</time></trkpt><trkpt lat="45.1485183" lon="10.7576983"><ele>27.0</ele><time>2026-04-17T12:05:49.32Z</time></trkpt><trkpt lat="45.148435" lon="10.7574883"><ele>27.0</ele><time>2026-04-17T12:05:50.318Z</time></trkpt><trkpt lat="45.148355" lon="10.7572817"><ele>27.0</ele><time>2026-04-17T12:05:51.318Z</time></trkpt><trkpt lat="45.148275" lon="10.757085"><ele>26.75</ele><time>2026-04-17T12:05:52.315Z</time></trkpt><trkpt lat="45.1481983" lon="10.7568983"><ele>26.5</ele><time>2026-04-17T12:05:53.318Z</time></trkpt><trkpt lat="45.1481283" lon="10.7567133"><ele>26.25</ele><time>2026-04-17T12:05:54.319Z</time></trkpt><trkpt lat="45.148055" lon="10.7565383"><ele>26.0</ele><time>2026-04-17T12:05:55.316Z</time></trkpt><trkpt lat="45.1479817" lon="10.7563667"><ele>25.75</ele><time>2026-04-17T12:05:56.316Z</time></trkpt><trkpt lat="45.1479067" lon="10.7561867"><ele>25.5</ele><time>2026-04-17T12:05:57.315Z</time></trkpt><trkpt lat="45.14783" lon="10.7560067"><ele>25.25</ele><time>2026-04-17T12:05:58.318Z</time></trkpt><trkpt lat="45.1477533" lon="10.75582"><ele>25.0</ele><time>2026-04-17T12:05:59.317Z</time></trkpt><trkpt lat="45.1476783" lon="10.755635"><ele>25.0</ele><time>2026-04-17T12:06:00.319Z</time></trkpt><trkpt lat="45.1476067" lon="10.7554583"><ele>25.0</ele><time>2026-04-17T12:06:01.318Z</time></trkpt><trkpt lat="45.14754" lon="10.7552883"><ele>25.0</ele><time>2026-04-17T12:06:02.319Z</time></trkpt><trkpt lat="45.1474733" lon="10.75512"><ele>25.0</ele><time>2026-04-17T12:06:03.315Z</time></trkpt><trkpt lat="45.1474067" lon="10.7549517"><ele>25.5</ele><time>2026-04-17T12:06:04.317Z</time></trkpt><trkpt lat="45.1473367" lon="10.75478"><ele>26.0</ele><time>2026-04-17T12:06:05.317Z</time></trkpt><trkpt lat="45.147265" lon="10.7546083"><ele>26.5</ele><time>2026-04-17T12:06:06.318Z</time></trkpt><trkpt lat="45.147195" lon="10.75444"><ele>27.0</ele><time>2026-04-17T12:06:07.317Z</time></trkpt><trkpt lat="45.147125" lon="10.754275"><ele>27.0</ele><time>2026-04-17T12:06:08.318Z</time></trkpt><trkpt lat="45.1470583" lon="10.754115"><ele>27.0</ele><time>2026-04-17T12:06:09.316Z</time></trkpt><trkpt lat="45.14699" lon="10.7539517"><ele>27.0</ele><time>2026-04-17T12:06:10.318Z</time></trkpt><trkpt lat="45.14692" lon="10.7537833"><ele>27.0</ele><time>2026-04-17T12:06:11.319Z</time></trkpt><trkpt lat="45.1468483" lon="10.7536083"><ele>26.75</ele><time>2026-04-17T12:06:12.315Z</time></trkpt><trkpt lat="45.146775" lon="10.7534317"><ele>26.5</ele><time>2026-04-17T12:06:13.321Z</time></trkpt><trkpt lat="45.1467" lon="10.7532517"><ele>26.25</ele><time>2026-04-17T12:06:14.317Z</time></trkpt><trkpt lat="45.1466233" lon="10.7530733"><ele>26.0</ele><time>2026-04-17T12:06:15.316Z</time></trkpt><trkpt lat="45.1465483" lon="10.7528967"><ele>25.5</ele><time>2026-04-17T12:06:16.318Z</time></trkpt><trkpt lat="45.1464733" lon="10.75272"><ele>25.0</ele><time>2026-04-17T12:06:17.319Z</time></trkpt><trkpt lat="45.1463967" lon="10.7525433"><ele>24.5</ele><time>2026-04-17T12:06:18.319Z</time></trkpt><trkpt lat="45.1463217" lon="10.7523683"><ele>24.0</ele><time>2026-04-17T12:06:19.317Z</time></trkpt><trkpt lat="45.1462483" lon="10.7521933"><ele>24.5</ele><time>2026-04-17T12:06:20.314Z</time></trkpt><trkpt lat="45.146175" lon="10.7520267"><ele>25.0</ele><time>2026-04-17T12:06:21.312Z</time></trkpt><trkpt lat="45.146105" lon="10.751855"><ele>25.5</ele><time>2026-04-17T12:06:22.313Z</time></trkpt><trkpt lat="45.1460333" lon="10.7516917"><ele>26.0</ele><time>2026-04-17T12:06:23.313Z</time></trkpt><trkpt lat="45.145965" lon="10.7515283"><ele>26.0</ele><time>2026-04-17T12:06:24.31Z</time></trkpt><trkpt lat="45.1458983" lon="10.751375"><ele>26.0</ele><time>2026-04-17T12:06:25.311Z</time></trkpt><trkpt lat="45.1458333" lon="10.751225"><ele>26.0</ele><time>2026-04-17T12:06:26.318Z</time></trkpt><trkpt lat="45.1457733" lon="10.7510733"><ele>26.0</ele><time>2026-04-17T12:06:27.315Z</time></trkpt><trkpt lat="45.1457183" lon="10.75092"><ele>26.0</ele><time>2026-04-17T12:06:28.317Z</time></trkpt><trkpt lat="45.1456617" lon="10.7507683"><ele>26.0</ele><time>2026-04-17T12:06:29.318Z</time></trkpt><trkpt lat="45.1456033" lon="10.7506167"><ele>26.0</ele><time>2026-04-17T12:06:30.317Z</time></trkpt><trkpt lat="45.145545" lon="10.7504717"><ele>26.0</ele><time>2026-04-17T12:06:31.315Z</time></trkpt><trkpt lat="45.1454883" lon="10.7503233"><ele>25.75</ele><time>2026-04-17T12:06:32.317Z</time></trkpt><trkpt lat="45.1454317" lon="10.75018"><ele>25.5</ele><time>2026-04-17T12:06:33.318Z</time></trkpt><trkpt lat="45.1453683" lon="10.75003"><ele>25.25</ele><time>2026-04-17T12:06:34.319Z</time></trkpt><trkpt lat="45.1453033" lon="10.749875"><ele>25.0</ele><time>2026-04-17T12:06:35.315Z</time></trkpt><trkpt lat="45.1452383" lon="10.7497183"><ele>25.0</ele><time>2026-04-17T12:06:36.316Z</time></trkpt><trkpt lat="45.1451717" lon="10.7495567"><ele>25.0</ele><time>2026-04-17T12:06:37.315Z</time></trkpt><trkpt lat="45.1451" lon="10.74939"><ele>25.0</ele><time>2026-04-17T12:06:38.318Z</time></trkpt><trkpt lat="45.1450267" lon="10.749215"><ele>25.0</ele><time>2026-04-17T12:06:39.316Z</time></trkpt><trkpt lat="45.1449483" lon="10.7490333"><ele>24.666666666666668</ele><time>2026-04-17T12:06:40.317Z</time></trkpt><trkpt lat="45.1448717" lon="10.74885"><ele>24.333333333333336</ele><time>2026-04-17T12:06:41.317Z</time></trkpt><trkpt lat="45.144795" lon="10.7486583"><ele>24.0</ele><time>2026-04-17T12:06:42.318Z</time></trkpt><trkpt lat="45.14472" lon="10.7484717"><ele>24.0</ele><time>2026-04-17T12:06:43.316Z</time></trkpt><trkpt lat="45.1446433" lon="10.74829"><ele>24.0</ele><time>2026-04-17T12:06:44.317Z</time></trkpt><trkpt lat="45.1445683" lon="10.7481133"><ele>24.0</ele><time>2026-04-17T12:06:45.315Z</time></trkpt><trkpt lat="45.1444983" lon="10.747945"><ele>24.0</ele><time>2026-04-17T12:06:46.315Z</time></trkpt><trkpt lat="45.1444317" lon="10.7477867"><ele>24.0</ele><time>2026-04-17T12:06:47.317Z</time></trkpt><trkpt lat="45.1443683" lon="10.7476333"><ele>24.0</ele><time>2026-04-17T12:06:48.317Z</time></trkpt><trkpt lat="45.1443083" lon="10.747485"><ele>24.0</ele><time>2026-04-17T12:06:49.317Z</time></trkpt><trkpt lat="45.14425" lon="10.7473417"><ele>24.0</ele><time>2026-04-17T12:06:50.319Z</time></trkpt><trkpt lat="45.1441933" lon="10.7472083"><ele>24.0</ele><time>2026-04-17T12:06:51.317Z</time></trkpt><trkpt lat="45.1441433" lon="10.747095"><ele>24.0</ele><time>2026-04-17T12:06:52.316Z</time></trkpt><trkpt lat="45.144105" lon="10.7470067"><ele>24.0</ele><time>2026-04-17T12:06:53.315Z</time></trkpt><trkpt lat="45.144015" lon="10.7469267"><ele>24.0</ele><time>2026-04-17T12:07:03.318Z</time></trkpt><trkpt lat="45.1439567" lon="10.74698"><ele>24.0</ele><time>2026-04-17T12:07:05.318Z</time></trkpt><trkpt lat="45.143965" lon="10.7470933"><ele>24.0</ele><time>2026-04-17T12:07:08.316Z</time></trkpt><trkpt lat="45.1440283" lon="10.7471467"><ele>24.0</ele><time>2026-04-17T12:07:11.318Z</time></trkpt><trkpt lat="45.1441" lon="10.7471667"><ele>24.0</ele><time>2026-04-17T12:07:39.315Z</time></trkpt><trkpt lat="45.144165" lon="10.7472717"><ele>24.0</ele><time>2026-04-17T12:07:42.315Z</time></trkpt><trkpt lat="45.1442267" lon="10.74743"><ele>24.0</ele><time>2026-04-17T12:07:44.318Z</time></trkpt><trkpt lat="45.1442667" lon="10.7475267"><ele>24.0</ele><time>2026-04-17T12:07:45.317Z</time></trkpt><trkpt lat="45.1443083" lon="10.7476283"><ele>24.0</ele><time>2026-04-17T12:07:46.315Z</time></trkpt><trkpt lat="45.144355" lon="10.7477333"><ele>24.0</ele><time>2026-04-17T12:07:47.318Z</time></trkpt><trkpt lat="45.1444017" lon="10.7478483"><ele>24.0</ele><time>2026-04-17T12:07:48.316Z</time></trkpt><trkpt lat="45.144455" lon="10.74797"><ele>24.0</ele><time>2026-04-17T12:07:49.318Z</time></trkpt><trkpt lat="45.1445117" lon="10.748095"><ele>24.0</ele><time>2026-04-17T12:07:50.318Z</time></trkpt><trkpt lat="45.1445733" lon="10.7482233"><ele>24.0</ele><time>2026-04-17T12:07:51.317Z</time></trkpt><trkpt lat="45.1446267" lon="10.7483483"><ele>24.0</ele><time>2026-04-17T12:07:52.317Z</time></trkpt><trkpt lat="45.1446783" lon="10.7484717"><ele>24.0</ele><time>2026-04-17T12:07:53.315Z</time></trkpt><trkpt lat="45.1447283" lon="10.7485883"><ele>24.0</ele><time>2026-04-17T12:07:54.316Z</time></trkpt><trkpt lat="45.1447817" lon="10.74869"><ele>24.0</ele><time>2026-04-17T12:07:55.318Z</time></trkpt><trkpt lat="45.1448367" lon="10.74877"><ele>23.833333333333332</ele><time>2026-04-17T12:07:56.319Z</time></trkpt><trkpt lat="45.1448933" lon="10.7488233"><ele>23.666666666666668</ele><time>2026-04-17T12:07:57.317Z</time></trkpt><trkpt lat="45.1449567" lon="10.7488367"><ele>23.5</ele><time>2026-04-17T12:07:58.318Z</time></trkpt><trkpt lat="45.1450183" lon="10.7488067"><ele>23.333333333333336</ele><time>2026-04-17T12:07:59.317Z</time></trkpt><trkpt lat="45.1450867" lon="10.7487333"><ele>23.166666666666668</ele><time>2026-04-17T12:08:00.316Z</time></trkpt><trkpt lat="45.1451583" lon="10.74866"><ele>23.0</ele><time>2026-04-17T12:08:01.319Z</time></trkpt><trkpt lat="45.145245" lon="10.748565"><ele>22.799999999999997</ele><time>2026-04-17T12:08:02.319Z</time></trkpt><trkpt lat="45.1453317" lon="10.7484867"><ele>22.6</ele><time>2026-04-17T12:08:03.315Z</time></trkpt><trkpt lat="45.1454283" lon="10.7484233"><ele>22.4</ele><time>2026-04-17T12:08:04.317Z</time></trkpt><trkpt lat="45.1455317" lon="10.7483867"><ele>22.200000000000003</ele><time>2026-04-17T12:08:05.316Z</time></trkpt><trkpt lat="45.1456433" lon="10.7483783"><ele>22.0</ele><time>2026-04-17T12:08:06.319Z</time></trkpt><trkpt lat="45.1457467" lon="10.7484083"><ele>22.0</ele><time>2026-04-17T12:08:07.319Z</time></trkpt><trkpt lat="45.1458433" lon="10.7484633"><ele>22.0</ele><time>2026-04-17T12:08:08.318Z</time></trkpt><trkpt lat="45.14593" lon="10.748555"><ele>22.0</ele><time>2026-04-17T12:08:09.318Z</time></trkpt><trkpt lat="45.146" lon="10.7486683"><ele>22.0</ele><time>2026-04-17T12:08:10.315Z</time></trkpt><trkpt lat="45.14605" lon="10.7488033"><ele>22.0</ele><time>2026-04-17T12:08:11.316Z</time></trkpt><trkpt lat="45.14608" lon="10.7489483"><ele>22.0</ele><time>2026-04-17T12:08:12.314Z</time></trkpt><trkpt lat="45.1460933" lon="10.749105"><ele>22.0</ele><time>2026-04-17T12:08:13.317Z</time></trkpt><trkpt lat="45.1460817" lon="10.749265"><ele>22.0</ele><time>2026-04-17T12:08:14.318Z</time></trkpt><trkpt lat="45.1460483" lon="10.74943"><ele>22.0</ele><time>2026-04-17T12:08:15.316Z</time></trkpt><trkpt lat="45.1460117" lon="10.7496017"><ele>23.25</ele><time>2026-04-17T12:08:16.315Z</time></trkpt><trkpt lat="45.1459733" lon="10.7497783"><ele>24.5</ele><time>2026-04-17T12:08:17.317Z</time></trkpt><trkpt lat="45.1459367" lon="10.749965"><ele>25.75</ele><time>2026-04-17T12:08:18.315Z</time></trkpt><trkpt lat="45.1458967" lon="10.7501617"><ele>27.0</ele><time>2026-04-17T12:08:19.315Z</time></trkpt><trkpt lat="45.1458517" lon="10.7503667"><ele>27.0</ele><time>2026-04-17T12:08:20.317Z</time></trkpt><trkpt lat="45.1458033" lon="10.75058"><ele>27.0</ele><time>2026-04-17T12:08:21.317Z</time></trkpt><trkpt lat="45.145755" lon="10.7508"><ele>27.0</ele><time>2026-04-17T12:08:22.318Z</time></trkpt><trkpt lat="45.145705" lon="10.751025"><ele>26.333333333333336</ele><time>2026-04-17T12:08:23.317Z</time></trkpt><trkpt lat="45.145655" lon="10.7512567"><ele>25.666666666666668</ele><time>2026-04-17T12:08:24.318Z</time></trkpt><trkpt lat="45.1456017" lon="10.7515033"><ele>25.0</ele><time>2026-04-17T12:08:25.317Z</time></trkpt><trkpt lat="45.1455467" lon="10.751755"><ele>25.0</ele><time>2026-04-17T12:08:26.318Z</time></trkpt><trkpt lat="45.1454883" lon="10.7520133"><ele>25.0</ele><time>2026-04-17T12:08:27.316Z</time></trkpt><trkpt lat="45.1454267" lon="10.75228"><ele>25.0</ele><time>2026-04-17T12:08:28.317Z</time></trkpt><trkpt lat="45.1453633" lon="10.7525517"><ele>23.333333333333336</ele><time>2026-04-17T12:08:29.317Z</time></trkpt><trkpt lat="45.1452967" lon="10.7528267"><ele>21.666666666666668</ele><time>2026-04-17T12:08:30.317Z</time></trkpt><trkpt lat="45.14523" lon="10.7531067"><ele>20.0</ele><time>2026-04-17T12:08:31.317Z</time></trkpt><trkpt lat="45.1451583" lon="10.7533867"><ele>19.333333333333336</ele><time>2026-04-17T12:08:32.316Z</time></trkpt><trkpt lat="45.1450783" lon="10.7536717"><ele>18.666666666666668</ele><time>2026-04-17T12:08:33.318Z</time></trkpt><trkpt lat="45.144985" lon="10.7539583"><ele>18.0</ele><time>2026-04-17T12:08:34.318Z</time></trkpt><trkpt lat="45.1448833" lon="10.754245"><ele>20.0</ele><time>2026-04-17T12:08:35.318Z</time></trkpt><trkpt lat="45.144775" lon="10.754525"><ele>22.0</ele><time>2026-04-17T12:08:36.316Z</time></trkpt><trkpt lat="45.144655" lon="10.7548"><ele>22.0</ele><time>2026-04-17T12:08:37.321Z</time></trkpt><trkpt lat="45.144525" lon="10.7550633"><ele>22.0</ele><time>2026-04-17T12:08:38.321Z</time></trkpt><trkpt lat="45.1443983" lon="10.7553433"><ele>21.5</ele><time>2026-04-17T12:08:39.32Z</time></trkpt><trkpt lat="45.1442633" lon="10.7556133"><ele>21.0</ele><time>2026-04-17T12:08:40.317Z</time></trkpt><trkpt lat="45.14413" lon="10.7558867"><ele>21.5</ele><time>2026-04-17T12:08:41.319Z</time></trkpt><trkpt lat="45.1439983" lon="10.756155"><ele>22.0</ele><time>2026-04-17T12:08:42.319Z</time></trkpt><trkpt lat="45.1438617" lon="10.7564317"><ele>22.0</ele><time>2026-04-17T12:08:43.317Z</time></trkpt><trkpt lat="45.1437283" lon="10.7567017"><ele>22.0</ele><time>2026-04-17T12:08:44.318Z</time></trkpt><trkpt lat="45.143595" lon="10.75697"><ele>22.0</ele><time>2026-04-17T12:08:45.319Z</time></trkpt><trkpt lat="45.14346" lon="10.7572367"><ele>22.0</ele><time>2026-04-17T12:08:46.319Z</time></trkpt><trkpt lat="45.14332" lon="10.7575067"><ele>21.5</ele><time>2026-04-17T12:08:47.32Z</time></trkpt><trkpt lat="45.14318" lon="10.7577867"><ele>21.0</ele><time>2026-04-17T12:08:48.318Z</time></trkpt><trkpt lat="45.143045" lon="10.7580667"><ele>21.0</ele><time>2026-04-17T12:08:49.318Z</time></trkpt><trkpt lat="45.142905" lon="10.7583483"><ele>21.0</ele><time>2026-04-17T12:08:50.32Z</time></trkpt><trkpt lat="45.1427633" lon="10.7586267"><ele>21.0</ele><time>2026-04-17T12:08:51.318Z</time></trkpt><trkpt lat="45.1426233" lon="10.7589017"><ele>21.0</ele><time>2026-04-17T12:08:52.319Z</time></trkpt><trkpt lat="45.14248" lon="10.7591683"><ele>20.5</ele><time>2026-04-17T12:08:53.319Z</time></trkpt><trkpt lat="45.1423233" lon="10.75943"><ele>20.0</ele><time>2026-04-17T12:08:54.323Z</time></trkpt><trkpt lat="45.1421617" lon="10.7596833"><ele>20.0</ele><time>2026-04-17T12:08:55.319Z</time></trkpt><trkpt lat="45.14199" lon="10.759925"><ele>20.0</ele><time>2026-04-17T12:08:56.319Z</time></trkpt><trkpt lat="45.1418117" lon="10.760165"><ele>20.0</ele><time>2026-04-17T12:08:57.318Z</time></trkpt><trkpt lat="45.141625" lon="10.760395"><ele>20.0</ele><time>2026-04-17T12:08:58.318Z</time></trkpt><trkpt lat="45.1414333" lon="10.76062"><ele>20.0</ele><time>2026-04-17T12:08:59.318Z</time></trkpt><trkpt lat="45.141235" lon="10.7608333"><ele>20.0</ele><time>2026-04-17T12:09:00.321Z</time></trkpt><trkpt lat="45.141035" lon="10.7610383"><ele>20.0</ele><time>2026-04-17T12:09:01.319Z</time></trkpt><trkpt lat="45.14083" lon="10.7612383"><ele>20.0</ele><time>2026-04-17T12:09:02.32Z</time></trkpt><trkpt lat="45.1406217" lon="10.76143"><ele>20.5</ele><time>2026-04-17T12:09:03.319Z</time></trkpt><trkpt lat="45.14041" lon="10.7616083"><ele>21.0</ele><time>2026-04-17T12:09:04.319Z</time></trkpt><trkpt lat="45.1401933" lon="10.761775"><ele>20.5</ele><time>2026-04-17T12:09:05.321Z</time></trkpt><trkpt lat="45.1399717" lon="10.761925"><ele>20.0</ele><time>2026-04-17T12:09:06.319Z</time></trkpt><trkpt lat="45.1397517" lon="10.76207"><ele>22.0</ele><time>2026-04-17T12:09:07.319Z</time></trkpt><trkpt lat="45.1395283" lon="10.7622033"><ele>24.0</ele><time>2026-04-17T12:09:08.318Z</time></trkpt><trkpt lat="45.1393083" lon="10.7623283"><ele>24.0</ele><time>2026-04-17T12:09:09.318Z</time></trkpt><trkpt lat="45.13909" lon="10.7624483"><ele>24.0</ele><time>2026-04-17T12:09:10.317Z</time></trkpt><trkpt lat="45.1388783" lon="10.7625683"><ele>23.0</ele><time>2026-04-17T12:09:11.318Z</time></trkpt><trkpt lat="45.1386683" lon="10.7626983"><ele>22.0</ele><time>2026-04-17T12:09:12.319Z</time></trkpt><trkpt lat="45.1384617" lon="10.7628283"><ele>22.0</ele><time>2026-04-17T12:09:13.318Z</time></trkpt><trkpt lat="45.13826" lon="10.7629733"><ele>22.0</ele><time>2026-04-17T12:09:14.318Z</time></trkpt><trkpt lat="45.1380667" lon="10.7631367"><ele>22.0</ele><time>2026-04-17T12:09:15.317Z</time></trkpt><trkpt lat="45.1378833" lon="10.76331"><ele>22.0</ele><time>2026-04-17T12:09:16.316Z</time></trkpt><trkpt lat="45.137705" lon="10.763495"><ele>22.0</ele><time>2026-04-17T12:09:17.318Z</time></trkpt><trkpt lat="45.1375317" lon="10.7636917"><ele>22.0</ele><time>2026-04-17T12:09:18.323Z</time></trkpt><trkpt lat="45.1373667" lon="10.763895"><ele>22.0</ele><time>2026-04-17T12:09:19.317Z</time></trkpt><trkpt lat="45.137215" lon="10.7640983"><ele>22.0</ele><time>2026-04-17T12:09:20.318Z</time></trkpt><trkpt lat="45.1370733" lon="10.7643017"><ele>21.333333333333332</ele><time>2026-04-17T12:09:21.316Z</time></trkpt><trkpt lat="45.1369467" lon="10.7645"><ele>20.666666666666668</ele><time>2026-04-17T12:09:22.314Z</time></trkpt><trkpt lat="45.1368267" lon="10.764695"><ele>20.0</ele><time>2026-04-17T12:09:23.318Z</time></trkpt><trkpt lat="45.1367117" lon="10.764885"><ele>20.0</ele><time>2026-04-17T12:09:24.314Z</time></trkpt><trkpt lat="45.1366033" lon="10.7650667"><ele>20.0</ele><time>2026-04-17T12:09:25.315Z</time></trkpt><trkpt lat="45.1365033" lon="10.765245"><ele>20.0</ele><time>2026-04-17T12:09:26.318Z</time></trkpt><trkpt lat="45.1364083" lon="10.765425"><ele>20.0</ele><time>2026-04-17T12:09:27.316Z</time></trkpt><trkpt lat="45.1363217" lon="10.7656033"><ele>20.0</ele><time>2026-04-17T12:09:28.316Z</time></trkpt><trkpt lat="45.1362483" lon="10.76578"><ele>20.0</ele><time>2026-04-17T12:09:29.317Z</time></trkpt><trkpt lat="45.1361883" lon="10.76595"><ele>20.0</ele><time>2026-04-17T12:09:30.316Z</time></trkpt><trkpt lat="45.1361317" lon="10.7661167"><ele>20.2</ele><time>2026-04-17T12:09:31.315Z</time></trkpt><trkpt lat="45.1360767" lon="10.7662783"><ele>20.4</ele><time>2026-04-17T12:09:32.313Z</time></trkpt><trkpt lat="45.1360333" lon="10.766425"><ele>20.6</ele><time>2026-04-17T12:09:33.314Z</time></trkpt><trkpt lat="45.136" lon="10.76655"><ele>20.8</ele><time>2026-04-17T12:09:34.314Z</time></trkpt><trkpt lat="45.1359717" lon="10.7666617"><ele>21.0</ele><time>2026-04-17T12:09:35.312Z</time></trkpt><trkpt lat="45.1359483" lon="10.7667683"><ele>21.0</ele><time>2026-04-17T12:09:36.314Z</time></trkpt><trkpt lat="45.1359267" lon="10.7668833"><ele>21.0</ele><time>2026-04-17T12:09:37.316Z</time></trkpt><trkpt lat="45.1359083" lon="10.7670033"><ele>21.0</ele><time>2026-04-17T12:09:38.316Z</time></trkpt><trkpt lat="45.1358883" lon="10.7671167"><ele>21.0</ele><time>2026-04-17T12:09:39.311Z</time></trkpt><trkpt lat="45.1358683" lon="10.7672233"><ele>21.0</ele><time>2026-04-17T12:09:40.315Z</time></trkpt><trkpt lat="45.1358483" lon="10.767325"><ele>21.0</ele><time>2026-04-17T12:09:41.315Z</time></trkpt><trkpt lat="45.13582" lon="10.767475"><ele>21.0</ele><time>2026-04-17T12:09:43.316Z</time></trkpt><trkpt lat="45.1358033" lon="10.767575"><ele>21.0</ele><time>2026-04-17T12:09:45.316Z</time></trkpt><trkpt lat="45.1357917" lon="10.76767"><ele>21.0</ele><time>2026-04-17T12:09:47.314Z</time></trkpt><trkpt lat="45.1357817" lon="10.7677917"><ele>21.0</ele><time>2026-04-17T12:09:49.317Z</time></trkpt><trkpt lat="45.1357717" lon="10.7679133"><ele>21.0</ele><time>2026-04-17T12:09:51.317Z</time></trkpt><trkpt lat="45.1357617" lon="10.7680017"><ele>21.0</ele><time>2026-04-17T12:09:53.318Z</time></trkpt><trkpt lat="45.1357517" lon="10.7680933"><ele>21.0</ele><time>2026-04-17T12:09:57.315Z</time></trkpt><trkpt lat="45.135745" lon="10.7681917"><ele>20.833333333333332</ele><time>2026-04-17T12:10:02.316Z</time></trkpt><trkpt lat="45.1357133" lon="10.7683167"><ele>20.666666666666668</ele><time>2026-04-17T12:10:05.315Z</time></trkpt><trkpt lat="45.1356733" lon="10.7684067"><ele>20.5</ele><time>2026-04-17T12:10:07.316Z</time></trkpt><trkpt lat="45.1356233" lon="10.7684867"><ele>20.333333333333336</ele><time>2026-04-17T12:10:10.316Z</time></trkpt><trkpt lat="45.1355783" lon="10.76857"><ele>20.166666666666668</ele><time>2026-04-17T12:10:16.313Z</time></trkpt><trkpt lat="45.1355233" lon="10.7686367"><ele>20.0</ele><time>2026-04-17T12:10:18.319Z</time></trkpt><trkpt lat="45.13544" lon="10.76873"><ele>20.0</ele><time>2026-04-17T12:10:20.318Z</time></trkpt><trkpt lat="45.1353883" lon="10.7688033"><ele>20.0</ele><time>2026-04-17T12:10:21.314Z</time></trkpt><trkpt lat="45.1353433" lon="10.7688967"><ele>20.0</ele><time>2026-04-17T12:10:22.315Z</time></trkpt><trkpt lat="45.1353067" lon="10.768995"><ele>20.0</ele><time>2026-04-17T12:10:23.317Z</time></trkpt><trkpt lat="45.1352667" lon="10.7690967"><ele>20.0</ele><time>2026-04-17T12:10:24.32Z</time></trkpt><trkpt lat="45.135225" lon="10.76919"><ele>20.0</ele><time>2026-04-17T12:10:25.318Z</time></trkpt><trkpt lat="45.1351733" lon="10.76927"><ele>20.0</ele><time>2026-04-17T12:10:26.317Z</time></trkpt><trkpt lat="45.135115" lon="10.76934"><ele>20.0</ele><time>2026-04-17T12:10:27.315Z</time></trkpt><trkpt lat="45.1350533" lon="10.7694033"><ele>20.0</ele><time>2026-04-17T12:10:28.317Z</time></trkpt><trkpt lat="45.1349883" lon="10.769465"><ele>20.0</ele><time>2026-04-17T12:10:29.316Z</time></trkpt><trkpt lat="45.1349183" lon="10.7695233"><ele>20.0</ele><time>2026-04-17T12:10:30.316Z</time></trkpt><trkpt lat="45.134845" lon="10.7695767"><ele>20.0</ele><time>2026-04-17T12:10:31.315Z</time></trkpt><trkpt lat="45.134765" lon="10.7696217"><ele>20.0</ele><time>2026-04-17T12:10:32.318Z</time></trkpt><trkpt lat="45.134685" lon="10.7696667"><ele>20.0</ele><time>2026-04-17T12:10:33.315Z</time></trkpt><trkpt lat="45.1346" lon="10.76971"><ele>20.0</ele><time>2026-04-17T12:10:34.317Z</time></trkpt><trkpt lat="45.13451" lon="10.76976"><ele>20.0</ele><time>2026-04-17T12:10:35.314Z</time></trkpt><trkpt lat="45.1344217" lon="10.7698117"><ele>20.0</ele><time>2026-04-17T12:10:36.317Z</time></trkpt><trkpt lat="45.134335" lon="10.76986"><ele>20.0</ele><time>2026-04-17T12:10:37.315Z</time></trkpt><trkpt lat="45.1342483" lon="10.7699033"><ele>20.0</ele><time>2026-04-17T12:10:38.318Z</time></trkpt><trkpt lat="45.1341567" lon="10.7699517"><ele>20.0</ele><time>2026-04-17T12:10:39.316Z</time></trkpt><trkpt lat="45.1340617" lon="10.7700017"><ele>20.0</ele><time>2026-04-17T12:10:40.315Z</time></trkpt><trkpt lat="45.1339617" lon="10.7700567"><ele>20.0</ele><time>2026-04-17T12:10:41.316Z</time></trkpt><trkpt lat="45.13386" lon="10.7701133"><ele>20.2</ele><time>2026-04-17T12:10:42.314Z</time></trkpt><trkpt lat="45.1337583" lon="10.7701783"><ele>20.4</ele><time>2026-04-17T12:10:43.318Z</time></trkpt><trkpt lat="45.1336617" lon="10.7702517"><ele>20.6</ele><time>2026-04-17T12:10:44.318Z</time></trkpt><trkpt lat="45.133565" lon="10.7703367"><ele>20.8</ele><time>2026-04-17T12:10:45.318Z</time></trkpt><trkpt lat="45.133475" lon="10.7704233"><ele>21.0</ele><time>2026-04-17T12:10:46.316Z</time></trkpt><trkpt lat="45.1333917" lon="10.770515"><ele>21.0</ele><time>2026-04-17T12:10:47.317Z</time></trkpt><trkpt lat="45.1333133" lon="10.77061"><ele>21.0</ele><time>2026-04-17T12:10:48.317Z</time></trkpt><trkpt lat="45.1332383" lon="10.7707133"><ele>21.0</ele><time>2026-04-17T12:10:49.318Z</time></trkpt><trkpt lat="45.1331633" lon="10.7708233"><ele>21.0</ele><time>2026-04-17T12:10:50.317Z</time></trkpt><trkpt lat="45.1330917" lon="10.770945"><ele>21.0</ele><time>2026-04-17T12:10:51.318Z</time></trkpt><trkpt lat="45.1330283" lon="10.7710683"><ele>21.5</ele><time>2026-04-17T12:10:52.318Z</time></trkpt><trkpt lat="45.1329683" lon="10.7711917"><ele>22.0</ele><time>2026-04-17T12:10:53.318Z</time></trkpt><trkpt lat="45.1329067" lon="10.771325"><ele>22.5</ele><time>2026-04-17T12:10:54.317Z</time></trkpt><trkpt lat="45.13285" lon="10.771465"><ele>23.0</ele><time>2026-04-17T12:10:55.315Z</time></trkpt><trkpt lat="45.1327917" lon="10.7716133"><ele>23.0</ele><time>2026-04-17T12:10:56.318Z</time></trkpt><trkpt lat="45.1327317" lon="10.7717633"><ele>23.0</ele><time>2026-04-17T12:10:57.316Z</time></trkpt><trkpt lat="45.1326617" lon="10.7719217"><ele>23.0</ele><time>2026-04-17T12:10:58.314Z</time></trkpt><trkpt lat="45.132585" lon="10.7720717"><ele>23.0</ele><time>2026-04-17T12:10:59.315Z</time></trkpt><trkpt lat="45.132495" lon="10.7722233"><ele>23.5</ele><time>2026-04-17T12:11:00.319Z</time></trkpt><trkpt lat="45.132395" lon="10.77237"><ele>24.0</ele><time>2026-04-17T12:11:01.319Z</time></trkpt><trkpt lat="45.1322833" lon="10.77251"><ele>24.5</ele><time>2026-04-17T12:11:02.319Z</time></trkpt><trkpt lat="45.13216" lon="10.7726383"><ele>25.0</ele><time>2026-04-17T12:11:03.315Z</time></trkpt><trkpt lat="45.132035" lon="10.7727733"><ele>23.666666666666668</ele><time>2026-04-17T12:11:04.315Z</time></trkpt><trkpt lat="45.13191" lon="10.77291"><ele>22.333333333333336</ele><time>2026-04-17T12:11:05.315Z</time></trkpt><trkpt lat="45.13178" lon="10.7730467"><ele>21.0</ele><time>2026-04-17T12:11:06.315Z</time></trkpt><trkpt lat="45.13165" lon="10.7731817"><ele>21.333333333333332</ele><time>2026-04-17T12:11:07.318Z</time></trkpt><trkpt lat="45.1315167" lon="10.7733217"><ele>21.666666666666664</ele><time>2026-04-17T12:11:08.317Z</time></trkpt><trkpt lat="45.131385" lon="10.77346"><ele>22.0</ele><time>2026-04-17T12:11:09.316Z</time></trkpt><trkpt lat="45.1312533" lon="10.7735967"><ele>22.0</ele><time>2026-04-17T12:11:10.317Z</time></trkpt><trkpt lat="45.1311183" lon="10.773735"><ele>22.0</ele><time>2026-04-17T12:11:11.315Z</time></trkpt><trkpt lat="45.1309883" lon="10.77388"><ele>22.0</ele><time>2026-04-17T12:11:12.316Z</time></trkpt><trkpt lat="45.1308567" lon="10.7740283"><ele>22.0</ele><time>2026-04-17T12:11:13.316Z</time></trkpt><trkpt lat="45.130725" lon="10.7741733"><ele>22.0</ele><time>2026-04-17T12:11:14.317Z</time></trkpt><trkpt lat="45.1305917" lon="10.77432"><ele>22.0</ele><time>2026-04-17T12:11:15.318Z</time></trkpt><trkpt lat="45.1304617" lon="10.774465"><ele>23.0</ele><time>2026-04-17T12:11:16.318Z</time></trkpt><trkpt lat="45.1303283" lon="10.7746"><ele>24.0</ele><time>2026-04-17T12:11:17.318Z</time></trkpt><trkpt lat="45.1301933" lon="10.7747317"><ele>25.0</ele><time>2026-04-17T12:11:18.317Z</time></trkpt><trkpt lat="45.1300617" lon="10.77487"><ele>25.0</ele><time>2026-04-17T12:11:19.317Z</time></trkpt><trkpt lat="45.1299383" lon="10.775015"><ele>25.0</ele><time>2026-04-17T12:11:20.319Z</time></trkpt><trkpt lat="45.12983" lon="10.7751683"><ele>25.0</ele><time>2026-04-17T12:11:21.314Z</time></trkpt><trkpt lat="45.1297317" lon="10.775335"><ele>24.666666666666668</ele><time>2026-04-17T12:11:22.316Z</time></trkpt><trkpt lat="45.12964" lon="10.7755133"><ele>24.333333333333336</ele><time>2026-04-17T12:11:23.316Z</time></trkpt><trkpt lat="45.1295483" lon="10.7756967"><ele>24.0</ele><time>2026-04-17T12:11:24.314Z</time></trkpt><trkpt lat="45.129455" lon="10.7758817"><ele>24.0</ele><time>2026-04-17T12:11:25.317Z</time></trkpt><trkpt lat="45.12936" lon="10.776065"><ele>24.0</ele><time>2026-04-17T12:11:26.318Z</time></trkpt><trkpt lat="45.1292717" lon="10.7762517"><ele>24.0</ele><time>2026-04-17T12:11:27.318Z</time></trkpt><trkpt lat="45.129185" lon="10.7764383"><ele>24.0</ele><time>2026-04-17T12:11:28.317Z</time></trkpt><trkpt lat="45.1291083" lon="10.7766283"><ele>24.0</ele><time>2026-04-17T12:11:29.315Z</time></trkpt><trkpt lat="45.1290367" lon="10.776825"><ele>24.0</ele><time>2026-04-17T12:11:30.315Z</time></trkpt><trkpt lat="45.12897" lon="10.777025"><ele>23.666666666666668</ele><time>2026-04-17T12:11:31.316Z</time></trkpt><trkpt lat="45.12891" lon="10.7772283"><ele>23.333333333333336</ele><time>2026-04-17T12:11:32.321Z</time></trkpt><trkpt lat="45.1288483" lon="10.7774267"><ele>23.0</ele><time>2026-04-17T12:11:33.312Z</time></trkpt><trkpt lat="45.1287733" lon="10.7776233"><ele>22.666666666666668</ele><time>2026-04-17T12:11:34.315Z</time></trkpt><trkpt lat="45.1286917" lon="10.7778117"><ele>22.333333333333332</ele><time>2026-04-17T12:11:35.316Z</time></trkpt><trkpt lat="45.1285983" lon="10.7779933"><ele>22.0</ele><time>2026-04-17T12:11:36.315Z</time></trkpt><trkpt lat="45.1284967" lon="10.77817"><ele>22.0</ele><time>2026-04-17T12:11:37.315Z</time></trkpt><trkpt lat="45.1283983" lon="10.7783333"><ele>22.0</ele><time>2026-04-17T12:11:38.318Z</time></trkpt><trkpt lat="45.1283033" lon="10.7784967"><ele>22.0</ele><time>2026-04-17T12:11:39.318Z</time></trkpt><trkpt lat="45.12821" lon="10.778665"><ele>22.333333333333332</ele><time>2026-04-17T12:11:40.314Z</time></trkpt><trkpt lat="45.12812" lon="10.7788383"><ele>22.666666666666668</ele><time>2026-04-17T12:11:41.314Z</time></trkpt><trkpt lat="45.1280317" lon="10.779015"><ele>23.0</ele><time>2026-04-17T12:11:42.315Z</time></trkpt><trkpt lat="45.1279533" lon="10.779195"><ele>22.666666666666668</ele><time>2026-04-17T12:11:43.315Z</time></trkpt><trkpt lat="45.1278733" lon="10.7793817"><ele>22.333333333333332</ele><time>2026-04-17T12:11:44.317Z</time></trkpt><trkpt lat="45.1277917" lon="10.7795783"><ele>22.0</ele><time>2026-04-17T12:11:45.314Z</time></trkpt><trkpt lat="45.1277083" lon="10.7797783"><ele>22.0</ele><time>2026-04-17T12:11:46.317Z</time></trkpt><trkpt lat="45.1276283" lon="10.7799783"><ele>22.0</ele><time>2026-04-17T12:11:47.315Z</time></trkpt><trkpt lat="45.12755" lon="10.7801717"><ele>22.0</ele><time>2026-04-17T12:11:48.317Z</time></trkpt><trkpt lat="45.1274683" lon="10.780365"><ele>21.333333333333332</ele><time>2026-04-17T12:11:49.316Z</time></trkpt><trkpt lat="45.1273767" lon="10.7805633"><ele>20.666666666666668</ele><time>2026-04-17T12:11:50.318Z</time></trkpt><trkpt lat="45.1272733" lon="10.7807517"><ele>20.0</ele><time>2026-04-17T12:11:51.318Z</time></trkpt><trkpt lat="45.1271667" lon="10.78094"><ele>19.666666666666668</ele><time>2026-04-17T12:11:52.317Z</time></trkpt><trkpt lat="45.12706" lon="10.7811267"><ele>19.333333333333332</ele><time>2026-04-17T12:11:53.318Z</time></trkpt><trkpt lat="45.1269533" lon="10.781315"><ele>19.0</ele><time>2026-04-17T12:11:54.318Z</time></trkpt><trkpt lat="45.1268567" lon="10.7815083"><ele>19.0</ele><time>2026-04-17T12:11:55.316Z</time></trkpt><trkpt lat="45.1267633" lon="10.7817117"><ele>19.0</ele><time>2026-04-17T12:11:56.318Z</time></trkpt><trkpt lat="45.12667" lon="10.7819133"><ele>19.0</ele><time>2026-04-17T12:11:57.316Z</time></trkpt><trkpt lat="45.1265767" lon="10.782115"><ele>19.666666666666664</ele><time>2026-04-17T12:11:58.316Z</time></trkpt><trkpt lat="45.1264833" lon="10.7823167"><ele>20.333333333333332</ele><time>2026-04-17T12:11:59.316Z</time></trkpt><trkpt lat="45.1263917" lon="10.7825133"><ele>21.0</ele><time>2026-04-17T12:12:00.316Z</time></trkpt><trkpt lat="45.1263" lon="10.7827067"><ele>21.333333333333332</ele><time>2026-04-17T12:12:01.315Z</time></trkpt><trkpt lat="45.12621" lon="10.7828917"><ele>21.666666666666664</ele><time>2026-04-17T12:12:02.316Z</time></trkpt><trkpt lat="45.1261167" lon="10.7830667"><ele>22.0</ele><time>2026-04-17T12:12:03.315Z</time></trkpt><trkpt lat="45.1260217" lon="10.7832317"><ele>22.0</ele><time>2026-04-17T12:12:04.316Z</time></trkpt><trkpt lat="45.1259267" lon="10.783395"><ele>22.0</ele><time>2026-04-17T12:12:05.318Z</time></trkpt><trkpt lat="45.1258333" lon="10.783565"><ele>22.0</ele><time>2026-04-17T12:12:06.317Z</time></trkpt><trkpt lat="45.1257433" lon="10.7837317"><ele>22.0</ele><time>2026-04-17T12:12:07.317Z</time></trkpt><trkpt lat="45.12565" lon="10.783905"><ele>22.25</ele><time>2026-04-17T12:12:08.316Z</time></trkpt><trkpt lat="45.125565" lon="10.7840667"><ele>22.5</ele><time>2026-04-17T12:12:09.317Z</time></trkpt><trkpt lat="45.1254783" lon="10.78423"><ele>22.75</ele><time>2026-04-17T12:12:10.314Z</time></trkpt><trkpt lat="45.125395" lon="10.7843917"><ele>23.0</ele><time>2026-04-17T12:12:11.315Z</time></trkpt><trkpt lat="45.125305" lon="10.7845617"><ele>23.0</ele><time>2026-04-17T12:12:12.318Z</time></trkpt><trkpt lat="45.125215" lon="10.7847233"><ele>23.0</ele><time>2026-04-17T12:12:13.318Z</time></trkpt><trkpt lat="45.1251217" lon="10.7848883"><ele>23.0</ele><time>2026-04-17T12:12:14.318Z</time></trkpt><trkpt lat="45.1250283" lon="10.78506"><ele>23.0</ele><time>2026-04-17T12:12:15.318Z</time></trkpt><trkpt lat="45.1249333" lon="10.7852283"><ele>23.25</ele><time>2026-04-17T12:12:16.313Z</time></trkpt><trkpt lat="45.124835" lon="10.7853917"><ele>23.5</ele><time>2026-04-17T12:12:17.317Z</time></trkpt><trkpt lat="45.124745" lon="10.7855533"><ele>23.75</ele><time>2026-04-17T12:12:18.318Z</time></trkpt><trkpt lat="45.1246583" lon="10.7857133"><ele>24.0</ele><time>2026-04-17T12:12:19.312Z</time></trkpt><trkpt lat="45.1245767" lon="10.785875"><ele>23.5</ele><time>2026-04-17T12:12:20.318Z</time></trkpt><trkpt lat="45.1244967" lon="10.7860417"><ele>23.0</ele><time>2026-04-17T12:12:21.319Z</time></trkpt><trkpt lat="45.12442" lon="10.7861983"><ele>22.5</ele><time>2026-04-17T12:12:22.316Z</time></trkpt><trkpt lat="45.1243517" lon="10.7863533"><ele>22.0</ele><time>2026-04-17T12:12:23.315Z</time></trkpt><trkpt lat="45.1242883" lon="10.7864983"><ele>22.0</ele><time>2026-04-17T12:12:24.319Z</time></trkpt><trkpt lat="45.1242283" lon="10.7866417"><ele>22.0</ele><time>2026-04-17T12:12:25.317Z</time></trkpt><trkpt lat="45.1241717" lon="10.7867767"><ele>22.0</ele><time>2026-04-17T12:12:26.32Z</time></trkpt><trkpt lat="45.12412" lon="10.7868967"><ele>22.0</ele><time>2026-04-17T12:12:27.319Z</time></trkpt><trkpt lat="45.1240733" lon="10.7870033"><ele>22.0</ele><time>2026-04-17T12:12:28.317Z</time></trkpt><trkpt lat="45.1240283" lon="10.7870917"><ele>22.0</ele><time>2026-04-17T12:12:29.317Z</time></trkpt><trkpt lat="45.1239833" lon="10.78717"><ele>22.0</ele><time>2026-04-17T12:12:30.318Z</time></trkpt><trkpt lat="45.1239283" lon="10.7872383"><ele>22.0</ele><time>2026-04-17T12:12:31.315Z</time></trkpt><trkpt lat="45.1238583" lon="10.7872983"><ele>22.0</ele><time>2026-04-17T12:12:32.32Z</time></trkpt><trkpt lat="45.1237783" lon="10.7873517"><ele>22.0</ele><time>2026-04-17T12:12:33.315Z</time></trkpt><trkpt lat="45.1236917" lon="10.78741"><ele>22.0</ele><time>2026-04-17T12:12:34.316Z</time></trkpt><trkpt lat="45.1236033" lon="10.787465"><ele>22.0</ele><time>2026-04-17T12:12:35.317Z</time></trkpt><trkpt lat="45.123505" lon="10.7874917"><ele>22.0</ele><time>2026-04-17T12:12:36.316Z</time></trkpt><trkpt lat="45.1233983" lon="10.7874817"><ele>22.0</ele><time>2026-04-17T12:12:37.317Z</time></trkpt><trkpt lat="45.12329" lon="10.78745"><ele>22.0</ele><time>2026-04-17T12:12:38.317Z</time></trkpt><trkpt lat="45.1231817" lon="10.7874117"><ele>22.0</ele><time>2026-04-17T12:12:39.317Z</time></trkpt><trkpt lat="45.12307" lon="10.78737"><ele>22.25</ele><time>2026-04-17T12:12:40.315Z</time></trkpt><trkpt lat="45.1229583" lon="10.78733"><ele>22.5</ele><time>2026-04-17T12:12:41.318Z</time></trkpt><trkpt lat="45.1228367" lon="10.7872867"><ele>22.75</ele><time>2026-04-17T12:12:42.318Z</time></trkpt><trkpt lat="45.1227117" lon="10.7872383"><ele>23.0</ele><time>2026-04-17T12:12:43.317Z</time></trkpt><trkpt lat="45.1225867" lon="10.7871833"><ele>23.0</ele><time>2026-04-17T12:12:44.318Z</time></trkpt><trkpt lat="45.1224567" lon="10.7871183"><ele>23.0</ele><time>2026-04-17T12:12:45.319Z</time></trkpt><trkpt lat="45.122325" lon="10.7870533"><ele>23.0</ele><time>2026-04-17T12:12:46.317Z</time></trkpt><trkpt lat="45.1222017" lon="10.7869867"><ele>23.0</ele><time>2026-04-17T12:12:47.316Z</time></trkpt><trkpt lat="45.1220817" lon="10.7869233"><ele>23.2</ele><time>2026-04-17T12:12:48.319Z</time></trkpt><trkpt lat="45.1219667" lon="10.7868683"><ele>23.4</ele><time>2026-04-17T12:12:49.318Z</time></trkpt><trkpt lat="45.1218617" lon="10.78682"><ele>23.599999999999998</ele><time>2026-04-17T12:12:50.318Z</time></trkpt><trkpt lat="45.1217833" lon="10.78678"><ele>23.799999999999997</ele><time>2026-04-17T12:12:51.319Z</time></trkpt><trkpt lat="45.1216917" lon="10.7867333"><ele>24.0</ele><time>2026-04-17T12:12:53.318Z</time></trkpt><trkpt lat="45.1216083" lon="10.7867"><ele>24.0</ele><time>2026-04-17T12:13:00.32Z</time></trkpt><trkpt lat="45.1215" lon="10.786655"><ele>24.0</ele><time>2026-04-17T12:13:02.319Z</time></trkpt><trkpt lat="45.121435" lon="10.78663"><ele>24.0</ele><time>2026-04-17T12:13:03.317Z</time></trkpt><trkpt lat="45.1213617" lon="10.7865933"><ele>24.0</ele><time>2026-04-17T12:13:04.316Z</time></trkpt><trkpt lat="45.121285" lon="10.7865633"><ele>24.0</ele><time>2026-04-17T12:13:05.319Z</time></trkpt><trkpt lat="45.1212117" lon="10.78653"><ele>24.0</ele><time>2026-04-17T12:13:06.319Z</time></trkpt><trkpt lat="45.121135" lon="10.786485"><ele>24.0</ele><time>2026-04-17T12:13:07.318Z</time></trkpt><trkpt lat="45.1210517" lon="10.7864517"><ele>24.0</ele><time>2026-04-17T12:13:08.317Z</time></trkpt><trkpt lat="45.1209733" lon="10.7864133"><ele>24.0</ele><time>2026-04-17T12:13:09.316Z</time></trkpt><trkpt lat="45.1208917" lon="10.7863767"><ele>24.0</ele><time>2026-04-17T12:13:10.317Z</time></trkpt><trkpt lat="45.1208117" lon="10.7863417"><ele>24.0</ele><time>2026-04-17T12:13:11.317Z</time></trkpt><trkpt lat="45.1207383" lon="10.7862983"><ele>24.0</ele><time>2026-04-17T12:13:12.318Z</time></trkpt><trkpt lat="45.1206667" lon="10.7862533"><ele>24.166666666666668</ele><time>2026-04-17T12:13:13.317Z</time></trkpt><trkpt lat="45.1205883" lon="10.7862167"><ele>24.333333333333336</ele><time>2026-04-17T12:13:14.318Z</time></trkpt><trkpt lat="45.120515" lon="10.78618"><ele>24.5</ele><time>2026-04-17T12:13:15.316Z</time></trkpt><trkpt lat="45.12044" lon="10.7861467"><ele>24.666666666666668</ele><time>2026-04-17T12:13:16.318Z</time></trkpt><trkpt lat="45.12037" lon="10.7861133"><ele>24.833333333333336</ele><time>2026-04-17T12:13:17.317Z</time></trkpt><trkpt lat="45.1202983" lon="10.78608"><ele>25.0</ele><time>2026-04-17T12:13:18.32Z</time></trkpt><trkpt lat="45.12023" lon="10.786045"><ele>25.000000000000004</ele><time>2026-04-17T12:13:19.318Z</time></trkpt><trkpt lat="45.1201617" lon="10.7860117"><ele>25.0</ele><time>2026-04-17T12:13:20.318Z</time></trkpt><trkpt lat="45.1200933" lon="10.7859817"><ele>25.0</ele><time>2026-04-17T12:13:21.318Z</time></trkpt><trkpt lat="45.1200233" lon="10.78595"><ele>25.0</ele><time>2026-04-17T12:13:22.316Z</time></trkpt><trkpt lat="45.119955" lon="10.7859183"><ele>25.0</ele><time>2026-04-17T12:13:23.318Z</time></trkpt><trkpt lat="45.1198883" lon="10.785885"><ele>25.000000000000004</ele><time>2026-04-17T12:13:24.317Z</time></trkpt><trkpt lat="45.119825" lon="10.7858533"><ele>25.0</ele><time>2026-04-17T12:13:25.318Z</time></trkpt><trkpt lat="45.119765" lon="10.7858233"><ele>24.6</ele><time>2026-04-17T12:13:26.319Z</time></trkpt><trkpt lat="45.11966" lon="10.785765"><ele>24.2</ele><time>2026-04-17T12:13:28.315Z</time></trkpt><trkpt lat="45.1195917" lon="10.7857217"><ele>23.799999999999997</ele><time>2026-04-17T12:13:31.316Z</time></trkpt><trkpt lat="45.1195183" lon="10.78569"><ele>23.4</ele><time>2026-04-17T12:13:55.315Z</time></trkpt><trkpt lat="45.1194317" lon="10.7856383"><ele>23.0</ele><time>2026-04-17T12:13:57.317Z</time></trkpt><trkpt lat="45.119315" lon="10.7855717"><ele>23.0</ele><time>2026-04-17T12:13:59.314Z</time></trkpt><trkpt lat="45.1192433" lon="10.7855333"><ele>23.0</ele><time>2026-04-17T12:14:00.316Z</time></trkpt><trkpt lat="45.1191617" lon="10.78549"><ele>23.0</ele><time>2026-04-17T12:14:01.316Z</time></trkpt><trkpt lat="45.119075" lon="10.7854433"><ele>23.0</ele><time>2026-04-17T12:14:02.317Z</time></trkpt><trkpt lat="45.118985" lon="10.785395"><ele>23.0</ele><time>2026-04-17T12:14:03.311Z</time></trkpt><trkpt lat="45.1188867" lon="10.7853483"><ele>23.25</ele><time>2026-04-17T12:14:04.316Z</time></trkpt><trkpt lat="45.1187817" lon="10.7852967"><ele>23.5</ele><time>2026-04-17T12:14:05.318Z</time></trkpt><trkpt lat="45.11867" lon="10.78524"><ele>23.75</ele><time>2026-04-17T12:14:06.317Z</time></trkpt><trkpt lat="45.1185533" lon="10.785175"><ele>24.0</ele><time>2026-04-17T12:14:07.316Z</time></trkpt><trkpt lat="45.1184267" lon="10.7851167"><ele>24.0</ele><time>2026-04-17T12:14:08.323Z</time></trkpt><trkpt lat="45.1182983" lon="10.7850533"><ele>24.0</ele><time>2026-04-17T12:14:09.317Z</time></trkpt><trkpt lat="45.1181717" lon="10.7849883"><ele>24.0</ele><time>2026-04-17T12:14:10.318Z</time></trkpt><trkpt lat="45.1180433" lon="10.7849267"><ele>24.0</ele><time>2026-04-17T12:14:11.318Z</time></trkpt><trkpt lat="45.1179133" lon="10.78486"><ele>24.0</ele><time>2026-04-17T12:14:12.317Z</time></trkpt><trkpt lat="45.1177783" lon="10.7847883"><ele>24.0</ele><time>2026-04-17T12:14:13.315Z</time></trkpt><trkpt lat="45.1176417" lon="10.7847217"><ele>24.0</ele><time>2026-04-17T12:14:14.316Z</time></trkpt><trkpt lat="45.1175033" lon="10.7846467"><ele>24.0</ele><time>2026-04-17T12:14:15.316Z</time></trkpt><trkpt lat="45.11736" lon="10.784575"><ele>24.0</ele><time>2026-04-17T12:14:16.315Z</time></trkpt><trkpt lat="45.1172117" lon="10.7844967"><ele>24.0</ele><time>2026-04-17T12:14:17.316Z</time></trkpt><trkpt lat="45.11706" lon="10.7844183"><ele>24.0</ele><time>2026-04-17T12:14:18.316Z</time></trkpt><trkpt lat="45.1169067" lon="10.7843383"><ele>23.666666666666668</ele><time>2026-04-17T12:14:19.315Z</time></trkpt><trkpt lat="45.1167533" lon="10.7842567"><ele>23.333333333333336</ele><time>2026-04-17T12:14:20.317Z</time></trkpt><trkpt lat="45.1165967" lon="10.78417"><ele>23.0</ele><time>2026-04-17T12:14:21.315Z</time></trkpt><trkpt lat="45.1164383" lon="10.784085"><ele>22.666666666666668</ele><time>2026-04-17T12:14:22.316Z</time></trkpt><trkpt lat="45.1162767" lon="10.784"><ele>22.333333333333332</ele><time>2026-04-17T12:14:23.314Z</time></trkpt><trkpt lat="45.1161117" lon="10.7839183"><ele>22.0</ele><time>2026-04-17T12:14:24.318Z</time></trkpt><trkpt lat="45.11594" lon="10.7838333"><ele>22.0</ele><time>2026-04-17T12:14:25.317Z</time></trkpt><trkpt lat="45.1157683" lon="10.78375"><ele>22.0</ele><time>2026-04-17T12:14:26.317Z</time></trkpt><trkpt lat="45.1155967" lon="10.7836633"><ele>22.0</ele><time>2026-04-17T12:14:27.317Z</time></trkpt><trkpt lat="45.1154217" lon="10.7835733"><ele>22.0</ele><time>2026-04-17T12:14:28.315Z</time></trkpt><trkpt lat="45.1152483" lon="10.7834867"><ele>22.0</ele><time>2026-04-17T12:14:29.316Z</time></trkpt><trkpt lat="45.115075" lon="10.7834"><ele>22.0</ele><time>2026-04-17T12:14:30.316Z</time></trkpt><trkpt lat="45.1149" lon="10.7833133"><ele>22.0</ele><time>2026-04-17T12:14:31.32Z</time></trkpt><trkpt lat="45.1147267" lon="10.783225"><ele>22.0</ele><time>2026-04-17T12:14:32.317Z</time></trkpt><trkpt lat="45.114555" lon="10.783135"><ele>22.0</ele><time>2026-04-17T12:14:33.316Z</time></trkpt><trkpt lat="45.1143817" lon="10.7830467"><ele>22.0</ele><time>2026-04-17T12:14:34.316Z</time></trkpt><trkpt lat="45.1142117" lon="10.7829583"><ele>22.0</ele><time>2026-04-17T12:14:35.318Z</time></trkpt><trkpt lat="45.114045" lon="10.7828683"><ele>22.0</ele><time>2026-04-17T12:14:36.317Z</time></trkpt><trkpt lat="45.11388" lon="10.78278"><ele>22.666666666666664</ele><time>2026-04-17T12:14:37.315Z</time></trkpt><trkpt lat="45.113715" lon="10.7826917"><ele>23.333333333333332</ele><time>2026-04-17T12:14:38.322Z</time></trkpt><trkpt lat="45.1135483" lon="10.7826083"><ele>24.0</ele><time>2026-04-17T12:14:39.316Z</time></trkpt><trkpt lat="45.1133833" lon="10.7825217"><ele>23.333333333333332</ele><time>2026-04-17T12:14:40.315Z</time></trkpt><trkpt lat="45.1132183" lon="10.7824383"><ele>22.666666666666664</ele><time>2026-04-17T12:14:41.317Z</time></trkpt><trkpt lat="45.1130517" lon="10.7823583"><ele>22.0</ele><time>2026-04-17T12:14:42.317Z</time></trkpt><trkpt lat="45.1128817" lon="10.78227"><ele>22.0</ele><time>2026-04-17T12:14:43.317Z</time></trkpt><trkpt lat="45.1127117" lon="10.7821833"><ele>22.0</ele><time>2026-04-17T12:14:44.318Z</time></trkpt><trkpt lat="45.11254" lon="10.7821"><ele>22.0</ele><time>2026-04-17T12:14:45.316Z</time></trkpt><trkpt lat="45.11237" lon="10.782015"><ele>22.333333333333332</ele><time>2026-04-17T12:14:46.317Z</time></trkpt><trkpt lat="45.1121967" lon="10.7819267"><ele>22.666666666666668</ele><time>2026-04-17T12:14:47.317Z</time></trkpt><trkpt lat="45.1120217" lon="10.7818367"><ele>23.0</ele><time>2026-04-17T12:14:48.318Z</time></trkpt><trkpt lat="45.1118467" lon="10.7817483"><ele>23.0</ele><time>2026-04-17T12:14:49.317Z</time></trkpt><trkpt lat="45.111675" lon="10.7816617"><ele>23.0</ele><time>2026-04-17T12:14:50.316Z</time></trkpt><trkpt lat="45.1115033" lon="10.781575"><ele>23.0</ele><time>2026-04-17T12:14:51.316Z</time></trkpt><trkpt lat="45.11133" lon="10.78149"><ele>23.0</ele><time>2026-04-17T12:14:52.319Z</time></trkpt><trkpt lat="45.1111533" lon="10.781395"><ele>23.0</ele><time>2026-04-17T12:14:53.319Z</time></trkpt><trkpt lat="45.11098" lon="10.7813033"><ele>23.0</ele><time>2026-04-17T12:14:54.32Z</time></trkpt><trkpt lat="45.1108083" lon="10.7812117"><ele>23.0</ele><time>2026-04-17T12:14:55.318Z</time></trkpt><trkpt lat="45.1106367" lon="10.7811267"><ele>23.0</ele><time>2026-04-17T12:14:56.318Z</time></trkpt><trkpt lat="45.1104667" lon="10.78104"><ele>23.0</ele><time>2026-04-17T12:14:57.317Z</time></trkpt><trkpt lat="45.1103" lon="10.7809567"><ele>22.666666666666668</ele><time>2026-04-17T12:14:58.315Z</time></trkpt><trkpt lat="45.11014" lon="10.7808783"><ele>22.333333333333332</ele><time>2026-04-17T12:14:59.318Z</time></trkpt><trkpt lat="45.10998" lon="10.7807967"><ele>22.0</ele><time>2026-04-17T12:15:00.319Z</time></trkpt><trkpt lat="45.10982" lon="10.7807133"><ele>21.666666666666664</ele><time>2026-04-17T12:15:01.316Z</time></trkpt><trkpt lat="45.109655" lon="10.780625"><ele>21.333333333333332</ele><time>2026-04-17T12:15:02.318Z</time></trkpt><trkpt lat="45.1094883" lon="10.7805417"><ele>21.0</ele><time>2026-04-17T12:15:03.314Z</time></trkpt><trkpt lat="45.1093217" lon="10.7804583"><ele>21.0</ele><time>2026-04-17T12:15:04.316Z</time></trkpt><trkpt lat="45.109155" lon="10.7803733"><ele>21.0</ele><time>2026-04-17T12:15:05.315Z</time></trkpt><trkpt lat="45.1089883" lon="10.7802883"><ele>21.0</ele><time>2026-04-17T12:15:06.318Z</time></trkpt><trkpt lat="45.1088167" lon="10.7802033"><ele>22.333333333333336</ele><time>2026-04-17T12:15:07.318Z</time></trkpt><trkpt lat="45.1086417" lon="10.7801183"><ele>23.666666666666668</ele><time>2026-04-17T12:15:08.316Z</time></trkpt><trkpt lat="45.1084667" lon="10.780035"><ele>25.0</ele><time>2026-04-17T12:15:09.319Z</time></trkpt><trkpt lat="45.1082917" lon="10.77995"><ele>25.0</ele><time>2026-04-17T12:15:10.317Z</time></trkpt><trkpt lat="45.10812" lon="10.7798633"><ele>25.0</ele><time>2026-04-17T12:15:11.318Z</time></trkpt><trkpt lat="45.1079533" lon="10.7797767"><ele>25.0</ele><time>2026-04-17T12:15:12.322Z</time></trkpt><trkpt lat="45.1077917" lon="10.7796933"><ele>25.0</ele><time>2026-04-17T12:15:13.318Z</time></trkpt><trkpt lat="45.1076383" lon="10.77961"><ele>25.0</ele><time>2026-04-17T12:15:14.318Z</time></trkpt><trkpt lat="45.1074867" lon="10.7795317"><ele>25.0</ele><time>2026-04-17T12:15:15.318Z</time></trkpt><trkpt lat="45.107345" lon="10.7794583"><ele>24.666666666666668</ele><time>2026-04-17T12:15:16.315Z</time></trkpt><trkpt lat="45.1072067" lon="10.779385"><ele>24.333333333333336</ele><time>2026-04-17T12:15:17.317Z</time></trkpt><trkpt lat="45.1070617" lon="10.7793117"><ele>24.0</ele><time>2026-04-17T12:15:18.317Z</time></trkpt><trkpt lat="45.1069133" lon="10.7792383"><ele>24.0</ele><time>2026-04-17T12:15:19.316Z</time></trkpt><trkpt lat="45.106765" lon="10.7791617"><ele>24.0</ele><time>2026-04-17T12:15:20.317Z</time></trkpt><trkpt lat="45.1066167" lon="10.7790833"><ele>24.0</ele><time>2026-04-17T12:15:21.315Z</time></trkpt><trkpt lat="45.1064683" lon="10.7790067"><ele>24.0</ele><time>2026-04-17T12:15:22.316Z</time></trkpt><trkpt lat="45.1063267" lon="10.7789367"><ele>24.0</ele><time>2026-04-17T12:15:23.317Z</time></trkpt><trkpt lat="45.106205" lon="10.7788683"><ele>24.0</ele><time>2026-04-17T12:15:24.317Z</time></trkpt><trkpt lat="45.1060967" lon="10.7788117"><ele>24.0</ele><time>2026-04-17T12:15:25.316Z</time></trkpt><trkpt lat="45.1060067" lon="10.7787667"><ele>24.0</ele><time>2026-04-17T12:15:26.318Z</time></trkpt><trkpt lat="45.1059383" lon="10.7787317"><ele>24.0</ele><time>2026-04-17T12:15:27.317Z</time></trkpt><trkpt lat="45.1058517" lon="10.7786867"><ele>24.0</ele><time>2026-04-17T12:15:29.322Z</time></trkpt><trkpt lat="45.1057717" lon="10.7786983"><ele>24.0</ele><time>2026-04-17T12:15:31.316Z</time></trkpt><trkpt lat="45.10571" lon="10.778825"><ele>24.0</ele><time>2026-04-17T12:15:33.316Z</time></trkpt><trkpt lat="45.1056417" lon="10.778985"><ele>23.833333333333332</ele><time>2026-04-17T12:15:35.31Z</time></trkpt><trkpt lat="45.105585" lon="10.7790617"><ele>23.666666666666668</ele><time>2026-04-17T12:15:36.317Z</time></trkpt><trkpt lat="45.1055267" lon="10.77913"><ele>23.5</ele><time>2026-04-17T12:15:37.312Z</time></trkpt><trkpt lat="45.1054567" lon="10.7791983"><ele>23.333333333333336</ele><time>2026-04-17T12:15:38.314Z</time></trkpt><trkpt lat="45.10538" lon="10.7792667"><ele>23.166666666666668</ele><time>2026-04-17T12:15:39.313Z</time></trkpt><trkpt lat="45.1053033" lon="10.7793433"><ele>23.0</ele><time>2026-04-17T12:15:40.311Z</time></trkpt><trkpt lat="45.1052183" lon="10.7794267"><ele>23.0</ele><time>2026-04-17T12:15:41.313Z</time></trkpt><trkpt lat="45.1051267" lon="10.7795067"><ele>23.0</ele><time>2026-04-17T12:15:42.314Z</time></trkpt><trkpt lat="45.1050367" lon="10.7795967"><ele>23.0</ele><time>2026-04-17T12:15:43.314Z</time></trkpt><trkpt lat="45.1049533" lon="10.779685"><ele>23.0</ele><time>2026-04-17T12:15:44.312Z</time></trkpt><trkpt lat="45.10488" lon="10.7797683"><ele>23.0</ele><time>2026-04-17T12:15:45.314Z</time></trkpt><trkpt lat="45.104815" lon="10.7798367"><ele>23.2</ele><time>2026-04-17T12:15:46.313Z</time></trkpt><trkpt lat="45.10472" lon="10.7798717"><ele>23.4</ele><time>2026-04-17T12:15:48.313Z</time></trkpt><trkpt lat="45.1046317" lon="10.7798"><ele>23.599999999999998</ele><time>2026-04-17T12:15:50.314Z</time></trkpt><trkpt lat="45.1045233" lon="10.7796967"><ele>23.799999999999997</ele><time>2026-04-17T12:15:52.313Z</time></trkpt><trkpt lat="45.10446" lon="10.77964"><ele>24.0</ele><time>2026-04-17T12:15:53.312Z</time></trkpt><trkpt lat="45.104405" lon="10.7795883"><ele>24.0</ele><time>2026-04-17T12:15:54.317Z</time></trkpt><trkpt lat="45.1043333" lon="10.7794933"><ele>24.0</ele><time>2026-04-17T12:15:56.313Z</time></trkpt><trkpt lat="45.104345" lon="10.7793783"><ele>24.0</ele><time>2026-04-17T12:15:58.317Z</time></trkpt><trkpt lat="45.1043833" lon="10.7792717"><ele>24.0</ele><time>2026-04-17T12:16:00.317Z</time></trkpt><trkpt lat="45.1044217" lon="10.7791617"><ele>24.0</ele><time>2026-04-17T12:16:02.317Z</time></trkpt><trkpt lat="45.10436" lon="10.77909"><ele>24.0</ele><time>2026-04-17T12:16:05.317Z</time></trkpt><trkpt lat="45.104315" lon="10.779185"><ele>24.0</ele><time>2026-04-17T12:16:42.32Z</time></trkpt></trkseg></trk></gpx>